www.cux-wetter.de
Wetterdaten: Dienstag, 05.02.2008
Datum Zeit Temp. A. Feuchte A. Luftdruck Regen Wind Richtung Richtung Sonnenschein Solar Taupunkt Windchill Windben
05.02.2008 00:02 3,5 C 96 % 1007,5 hPa 0,0 l/m 20,3 km/h (4 Bft) W-SW 250 0 min 0 W/m 2,9 C -5,2 C 20,3 km/h (4 Bft)
05.02.2008 00:06 3,5 C 96 % 1007,5 hPa 0,0 l/m 20,3 km/h (4 Bft) W-SW 250 0 min 0 W/m 2,9 C -5,2 C 20,3 km/h (4 Bft)
05.02.2008 00:09 3,4 C 96 % 1007,5 hPa 0,0 l/m 14,3 km/h (3 Bft) W-SW 245 0 min 0 W/m 2,8 C -2,5 C 14,3 km/h (3 Bft)
05.02.2008 00:12 3,4 C 97 % 1007,5 hPa 0,0 l/m 18,5 km/h (3 Bft) W-SW 250 0 min 0 W/m 3,0 C -4,6 C 18,5 km/h (3 Bft)
05.02.2008 00:15 3,4 C 97 % 1007,5 hPa 0,0 l/m 17,3 km/h (3 Bft) W-SW 240 0 min 0 W/m 3,0 C -4,0 C 17,3 km/h (3 Bft)
05.02.2008 00:18 3,4 C 97 % 1007,5 hPa 0,0 l/m 23,1 km/h (4 Bft) W-SW 245 0 min 0 W/m 3,0 C -6,4 C 23,1 km/h (4 Bft)
05.02.2008 00:21 3,3 C 97 % 1007,5 hPa 0,0 l/m 17,7 km/h (3 Bft) SW 235 0 min 0 W/m 2,9 C -4,3 C 17,7 km/h (3 Bft)
05.02.2008 00:24 3,3 C 97 % 1007,5 hPa 0,0 l/m 15,6 km/h (3 Bft) W-SW 250 0 min 0 W/m 2,9 C -3,3 C 15,6 km/h (3 Bft)
05.02.2008 00:27 3,3 C 97 % 1007,5 hPa 0,0 l/m 13,0 km/h (3 Bft) W-SW 240 0 min 0 W/m 2,9 C -1,8 C 13,0 km/h (3 Bft)
05.02.2008 00:29 3,2 C 97 % 1007,5 hPa 0,0 l/m 18,5 km/h (3 Bft) W-SW 245 0 min 0 W/m 2,8 C -4,8 C 18,5 km/h (3 Bft)
05.02.2008 00:32 3,2 C 97 % 1007,5 hPa 0,0 l/m 15,0 km/h (3 Bft) SW 235 0 min 0 W/m 2,8 C -3,1 C 15,0 km/h (3 Bft)
05.02.2008 00:35 3,1 C 97 % 1007,5 hPa 0,0 l/m 13,3 km/h (3 Bft) W-SW 240 0 min 0 W/m 2,7 C -2,2 C 13,3 km/h (3 Bft)
05.02.2008 00:38 3,1 C 97 % 1007,5 hPa 0,0 l/m 16,0 km/h (3 Bft) W-SW 240 0 min 0 W/m 2,7 C -3,8 C 16,0 km/h (3 Bft)
05.02.2008 00:41 3,1 C 97 % 1007,5 hPa 0,0 l/m 12,5 km/h (2 Bft) SW 235 0 min 0 W/m 2,7 C -1,8 C 12,5 km/h (2 Bft)
05.02.2008 00:44 3,1 C 97 % 1008,5 hPa 0,0 l/m 16,1 km/h (3 Bft) SW 230 0 min 0 W/m 2,7 C -3,8 C 16,1 km/h (3 Bft)
05.02.2008 00:47 3,1 C 97 % 1008,5 hPa 0,0 l/m 14,1 km/h (3 Bft) SW 225 0 min 0 W/m 2,7 C -2,7 C 14,1 km/h (3 Bft)
05.02.2008 00:50 3,1 C 97 % 1008,5 hPa 0,0 l/m 14,1 km/h (3 Bft) SW 230 0 min 0 W/m 2,7 C -2,7 C 14,1 km/h (3 Bft)
05.02.2008 00:53 3,0 C 97 % 1008,5 hPa 0,0 l/m 14,3 km/h (3 Bft) W-SW 240 0 min 0 W/m 2,6 C -3,0 C 14,3 km/h (3 Bft)
05.02.2008 00:56 3,0 C 97 % 1008,5 hPa 0,3 l/m 14,5 km/h (3 Bft) W-SW 240 0 min 0 W/m 2,6 C -3,1 C 14,5 km/h (3 Bft)
05.02.2008 00:59 3,0 C 97 % 1008,5 hPa 0,0 l/m 16,3 km/h (3 Bft) SW 220 0 min 0 W/m 2,6 C -4,0 C 16,3 km/h (3 Bft)
05.02.2008 01:03 2,9 C 97 % 1008,5 hPa 0,0 l/m 19,3 km/h (3 Bft) SW 220 0 min 0 W/m 2,5 C -5,6 C 19,3 km/h (3 Bft)
05.02.2008 01:06 2,9 C 97 % 1008,5 hPa 0,0 l/m 18,8 km/h (3 Bft) SW 230 0 min 0 W/m 2,5 C -5,4 C 18,8 km/h (3 Bft)
05.02.2008 01:08 2,9 C 97 % 1008,5 hPa 0,0 l/m 15,6 km/h (3 Bft) SW 225 0 min 0 W/m 2,5 C -3,8 C 15,6 km/h (3 Bft)
05.02.2008 01:11 2,9 C 97 % 1008,5 hPa 0,0 l/m 15,5 km/h (3 Bft) SW 225 0 min 0 W/m 2,5 C -3,7 C 15,5 km/h (3 Bft)
05.02.2008 01:14 2,8 C 97 % 1008,5 hPa 0,0 l/m 18,9 km/h (3 Bft) SW 220 0 min 0 W/m 2,4 C -5,5 C 18,9 km/h (3 Bft)
05.02.2008 01:17 2,8 C 97 % 1008,5 hPa 0,0 l/m 16,1 km/h (3 Bft) SW 225 0 min 0 W/m 2,4 C -4,2 C 16,1 km/h (3 Bft)
05.02.2008 01:20 2,7 C 97 % 1008,5 hPa 0,0 l/m 16,1 km/h (3 Bft) SW 225 0 min 0 W/m 2,3 C -4,3 C 16,1 km/h (3 Bft)
05.02.2008 01:23 2,7 C 97 % 1008,5 hPa 0,0 l/m 14,8 km/h (3 Bft) SW 215 0 min 0 W/m 2,3 C -3,6 C 14,8 km/h (3 Bft)
05.02.2008 01:26 2,7 C 97 % 1008,5 hPa 0,0 l/m 15,2 km/h (3 Bft) SW 220 0 min 0 W/m 2,3 C -3,8 C 15,2 km/h (3 Bft)
05.02.2008 01:29 2,7 C 97 % 1008,5 hPa 0,0 l/m 16,8 km/h (3 Bft) SW 220 0 min 0 W/m 2,3 C -4,7 C 16,8 km/h (3 Bft)
05.02.2008 01:32 2,7 C 97 % 1008,5 hPa 0,0 l/m 21,5 km/h (4 Bft) SW 215 0 min 0 W/m 2,3 C -6,8 C 21,5 km/h (4 Bft)
05.02.2008 01:35 2,6 C 97 % 1008,5 hPa 0,0 l/m 18,0 km/h (3 Bft) S-SW 210 0 min 0 W/m 2,2 C -5,4 C 18,0 km/h (3 Bft)
05.02.2008 01:38 2,6 C 97 % 1008,5 hPa 0,0 l/m 16,1 km/h (3 Bft) SW 225 0 min 0 W/m 2,2 C -4,4 C 16,1 km/h (3 Bft)
05.02.2008 01:41 2,6 C 97 % 1008,5 hPa 0,0 l/m 18,9 km/h (3 Bft) SW 220 0 min 0 W/m 2,2 C -5,8 C 18,9 km/h (3 Bft)
05.02.2008 01:44 2,6 C 97 % 1008,5 hPa 0,0 l/m 21,5 km/h (4 Bft) SW 215 0 min 0 W/m 2,2 C -6,9 C 21,5 km/h (4 Bft)
05.02.2008 01:47 2,6 C 97 % 1008,5 hPa 0,0 l/m 18,1 km/h (3 Bft) S-SW 205 0 min 0 W/m 2,2 C -5,4 C 18,1 km/h (3 Bft)
05.02.2008 01:50 2,6 C 97 % 1008,5 hPa 0,0 l/m 13,2 km/h (3 Bft) SW 225 0 min 0 W/m 2,2 C -2,8 C 13,2 km/h (3 Bft)
05.02.2008 01:53 2,5 C 97 % 1008,5 hPa 0,0 l/m 18,1 km/h (3 Bft) SW 215 0 min 0 W/m 2,1 C -5,5 C 18,1 km/h (3 Bft)
05.02.2008 01:57 2,5 C 97 % 1008,5 hPa 0,0 l/m 18,1 km/h (3 Bft) SW 215 0 min 0 W/m 2,1 C -5,5 C 18,1 km/h (3 Bft)
05.02.2008 02:00 2,5 C 97 % 1008,5 hPa 0,0 l/m 19,8 km/h (3 Bft) SW 220 0 min 0 W/m 2,1 C -6,3 C 19,8 km/h (3 Bft)
05.02.2008 02:02 2,5 C 97 % 1008,5 hPa 0,0 l/m 19,8 km/h (3 Bft) SW 220 0 min 0 W/m 2,1 C -6,3 C 19,8 km/h (3 Bft)
05.02.2008 02:05 2,5 C 97 % 1008,5 hPa 0,0 l/m 20,5 km/h (4 Bft) SW 215 0 min 0 W/m 2,1 C -6,6 C 20,5 km/h (4 Bft)
05.02.2008 02:08 2,5 C 97 % 1008,5 hPa 0,0 l/m 23,1 km/h (4 Bft) SW 215 0 min 0 W/m 2,1 C -7,6 C 23,1 km/h (4 Bft)
05.02.2008 02:11 2,5 C 97 % 1008,5 hPa 0,0 l/m 22,5 km/h (4 Bft) SW 215 0 min 0 W/m 2,1 C -7,4 C 22,5 km/h (4 Bft)
05.02.2008 02:14 2,5 C 97 % 1008,5 hPa 0,0 l/m 19,8 km/h (3 Bft) SW 215 0 min 0 W/m 2,1 C -6,3 C 19,8 km/h (3 Bft)
05.02.2008 02:17 2,5 C 97 % 1008,5 hPa 0,0 l/m 16,8 km/h (3 Bft) S-SW 210 0 min 0 W/m 2,1 C -4,9 C 16,8 km/h (3 Bft)
05.02.2008 02:20 2,5 C 97 % 1008,5 hPa 0,0 l/m 18,9 km/h (3 Bft) S-SW 205 0 min 0 W/m 2,1 C -5,9 C 18,9 km/h (3 Bft)
05.02.2008 02:23 2,5 C 97 % 1008,5 hPa 0,0 l/m 15,6 km/h (3 Bft) SW 220 0 min 0 W/m 2,1 C -4,3 C 15,6 km/h (3 Bft)
05.02.2008 02:26 2,4 C 97 % 1008,5 hPa 0,0 l/m 16,0 km/h (3 Bft) SW 215 0 min 0 W/m 2,0 C -4,6 C 16,0 km/h (3 Bft)
05.02.2008 02:29 2,4 C 97 % 1008,5 hPa 0,0 l/m 18,4 km/h (3 Bft) S-SW 210 0 min 0 W/m 2,0 C -5,8 C 18,4 km/h (3 Bft)
05.02.2008 02:32 2,4 C 97 % 1008,5 hPa 0,0 l/m 18,4 km/h (3 Bft) S-SW 210 0 min 0 W/m 2,0 C -5,8 C 18,4 km/h (3 Bft)
05.02.2008 02:36 2,5 C 97 % 1008,5 hPa 0,0 l/m 18,3 km/h (3 Bft) SW 215 0 min 0 W/m 2,1 C -5,6 C 18,3 km/h (3 Bft)
05.02.2008 02:39 2,5 C 97 % 1008,5 hPa 0,0 l/m 13,6 km/h (3 Bft) SW 215 0 min 0 W/m 2,1 C -3,1 C 13,6 km/h (3 Bft)
05.02.2008 02:42 2,4 C 97 % 1008,5 hPa 0,0 l/m 18,3 km/h (3 Bft) SW 215 0 min 0 W/m 2,0 C -5,8 C 18,3 km/h (3 Bft)
05.02.2008 02:45 2,4 C 97 % 1008,5 hPa 0,0 l/m 21,3 km/h (4 Bft) S-SW 210 0 min 0 W/m 2,0 C -7,1 C 21,3 km/h (4 Bft)
05.02.2008 02:48 2,4 C 97 % 1008,5 hPa 0,0 l/m 18,3 km/h (3 Bft) SW 215 0 min 0 W/m 2,0 C -5,8 C 18,3 km/h (3 Bft)
05.02.2008 02:51 2,4 C 97 % 1008,5 hPa 0,0 l/m 23,3 km/h (4 Bft) S-SW 210 0 min 0 W/m 2,0 C -7,9 C 23,3 km/h (4 Bft)
05.02.2008 02:53 2,4 C 97 % 1008,5 hPa 0,0 l/m 20,4 km/h (4 Bft) SW 215 0 min 0 W/m 2,0 C -6,7 C 20,4 km/h (4 Bft)
05.02.2008 02:56 2,4 C 97 % 1008,5 hPa 0,0 l/m 19,7 km/h (3 Bft) SW 220 0 min 0 W/m 2,0 C -6,4 C 19,7 km/h (3 Bft)
05.02.2008 02:59 2,4 C 97 % 1008,5 hPa 0,0 l/m 19,1 km/h (3 Bft) SW 215 0 min 0 W/m 2,0 C -6,1 C 19,1 km/h (3 Bft)
05.02.2008 03:02 2,4 C 97 % 1008,5 hPa 0,0 l/m 19,3 km/h (3 Bft) SW 215 0 min 0 W/m 2,0 C -6,2 C 19,3 km/h (3 Bft)
05.02.2008 03:05 2,4 C 97 % 1008,5 hPa 0,0 l/m 24,1 km/h (4 Bft) SW 230 0 min 0 W/m 2,0 C -8,1 C 24,1 km/h (4 Bft)
05.02.2008 03:09 2,5 C 97 % 1008,5 hPa 0,0 l/m 20,3 km/h (4 Bft) SW 225 0 min 0 W/m 2,1 C -6,5 C 20,3 km/h (4 Bft)
05.02.2008 03:12 2,5 C 97 % 1009,5 hPa 0,0 l/m 21,4 km/h (4 Bft) SW 225 0 min 0 W/m 2,1 C -7,0 C 21,4 km/h (4 Bft)
05.02.2008 03:15 2,5 C 97 % 1008,5 hPa 0,0 l/m 19,8 km/h (3 Bft) SW 235 0 min 0 W/m 2,1 C -6,3 C 19,8 km/h (3 Bft)
05.02.2008 03:18 2,5 C 97 % 1008,5 hPa 0,0 l/m 17,8 km/h (3 Bft) SW 220 0 min 0 W/m 2,1 C -5,4 C 17,8 km/h (3 Bft)
05.02.2008 03:21 2,6 C 97 % 1008,5 hPa 0,0 l/m 13,1 km/h (3 Bft) SW 230 0 min 0 W/m 2,2 C -2,7 C 13,1 km/h (3 Bft)
05.02.2008 03:24 2,5 C 97 % 1008,5 hPa 0,0 l/m 15,5 km/h (3 Bft) SW 230 0 min 0 W/m 2,1 C -4,2 C 15,5 km/h (3 Bft)
05.02.2008 03:26 2,5 C 97 % 1008,5 hPa 0,0 l/m 15,2 km/h (3 Bft) SW 225 0 min 0 W/m 2,1 C -4,1 C 15,2 km/h (3 Bft)
05.02.2008 03:29 2,5 C 97 % 1009,5 hPa 0,0 l/m 19,1 km/h (3 Bft) SW 230 0 min 0 W/m 2,1 C -6,0 C 19,1 km/h (3 Bft)
05.02.2008 03:32 2,6 C 97 % 1009,5 hPa 0,0 l/m 17,2 km/h (3 Bft) SW 225 0 min 0 W/m 2,2 C -5,0 C 17,2 km/h (3 Bft)
05.02.2008 03:35 2,5 C 97 % 1009,5 hPa 0,0 l/m 17,1 km/h (3 Bft) SW 225 0 min 0 W/m 2,1 C -5,1 C 17,1 km/h (3 Bft)
05.02.2008 03:38 2,5 C 97 % 1008,5 hPa 0,0 l/m 21,0 km/h (4 Bft) W-SW 240 0 min 0 W/m 2,1 C -6,8 C 21,0 km/h (4 Bft)
05.02.2008 03:41 2,6 C 97 % 1008,5 hPa 0,0 l/m 24,0 km/h (4 Bft) SW 235 0 min 0 W/m 2,2 C -7,8 C 24,0 km/h (4 Bft)
05.02.2008 03:44 2,6 C 97 % 1008,5 hPa 0,0 l/m 17,8 km/h (3 Bft) SW 220 0 min 0 W/m 2,2 C -5,3 C 17,8 km/h (3 Bft)
05.02.2008 03:47 2,6 C 97 % 1009,5 hPa 0,0 l/m 27,4 km/h (5 Bft) SW 230 0 min 0 W/m 2,2 C -9,0 C 27,4 km/h (5 Bft)
05.02.2008 03:50 2,6 C 97 % 1009,5 hPa 0,0 l/m 27,4 km/h (5 Bft) SW 230 0 min 0 W/m 2,2 C -9,0 C 27,4 km/h (5 Bft)
05.02.2008 03:53 2,7 C 97 % 1009,5 hPa 0,0 l/m 19,5 km/h (3 Bft) SW 225 0 min 0 W/m 2,3 C -5,9 C 19,5 km/h (3 Bft)
05.02.2008 03:56 2,7 C 97 % 1009,5 hPa 0,0 l/m 22,1 km/h (4 Bft) SW 225 0 min 0 W/m 2,3 C -7,0 C 22,1 km/h (4 Bft)
05.02.2008 03:59 2,7 C 97 % 1009,5 hPa 0,0 l/m 18,5 km/h (3 Bft) SW 235 0 min 0 W/m 2,3 C -5,5 C 18,5 km/h (3 Bft)
05.02.2008 04:02 2,7 C 97 % 1009,5 hPa 0,0 l/m 18,1 km/h (3 Bft) SW 230 0 min 0 W/m 2,3 C -5,3 C 18,1 km/h (3 Bft)
05.02.2008 04:05 2,7 C 97 % 1008,5 hPa 0,0 l/m 20,6 km/h (4 Bft) SW 220 0 min 0 W/m 2,3 C -6,4 C 20,6 km/h (4 Bft)
05.02.2008 04:08 2,7 C 97 % 1008,5 hPa 0,0 l/m 22,0 km/h (4 Bft) SW 225 0 min 0 W/m 2,3 C -7,0 C 22,0 km/h (4 Bft)
05.02.2008 04:11 2,6 C 97 % 1008,5 hPa 0,0 l/m 25,7 km/h (4 Bft) SW 225 0 min 0 W/m 2,2 C -8,4 C 25,7 km/h (4 Bft)
05.02.2008 04:14 2,6 C 97 % 1008,5 hPa 0,0 l/m 20,8 km/h (4 Bft) SW 220 0 min 0 W/m 2,2 C -6,6 C 20,8 km/h (4 Bft)
05.02.2008 04:17 2,6 C 97 % 1008,5 hPa 0,0 l/m 14,9 km/h (3 Bft) SW 230 0 min 0 W/m 2,2 C -3,8 C 14,9 km/h (3 Bft)
05.02.2008 04:20 2,6 C 97 % 1008,5 hPa 0,0 l/m 21,3 km/h (4 Bft) SW 230 0 min 0 W/m 2,2 C -6,8 C 21,3 km/h (4 Bft)
05.02.2008 04:23 2,5 C 97 % 1008,5 hPa 0,0 l/m 18,4 km/h (3 Bft) SW 220 0 min 0 W/m 2,1 C -5,7 C 18,4 km/h (3 Bft)
05.02.2008 04:26 2,5 C 97 % 1008,5 hPa 0,0 l/m 19,8 km/h (3 Bft) SW 215 0 min 0 W/m 2,1 C -6,3 C 19,8 km/h (3 Bft)
05.02.2008 04:29 2,5 C 97 % 1008,5 hPa 0,0 l/m 21,3 km/h (4 Bft) SW 215 0 min 0 W/m 2,1 C -6,9 C 21,3 km/h (4 Bft)
05.02.2008 04:32 2,5 C 97 % 1008,5 hPa 0,0 l/m 19,1 km/h (3 Bft) SW 215 0 min 0 W/m 2,1 C -6,0 C 19,1 km/h (3 Bft)
05.02.2008 04:36 2,4 C 97 % 1008,5 hPa 0,0 l/m 19,5 km/h (3 Bft) S-SW 210 0 min 0 W/m 2,0 C -6,3 C 19,5 km/h (3 Bft)
05.02.2008 04:39 2,4 C 97 % 1008,5 hPa 0,0 l/m 22,2 km/h (4 Bft) SW 215 0 min 0 W/m 2,0 C -7,4 C 22,2 km/h (4 Bft)
05.02.2008 04:42 2,3 C 97 % 1008,5 hPa 0,0 l/m 18,2 km/h (3 Bft) SW 215 0 min 0 W/m 1,9 C -5,8 C 18,2 km/h (3 Bft)
05.02.2008 04:45 2,3 C 97 % 1008,5 hPa 0,0 l/m 19,6 km/h (3 Bft) SW 220 0 min 0 W/m 1,9 C -6,5 C 19,6 km/h (3 Bft)
05.02.2008 04:48 2,3 C 97 % 1008,5 hPa 0,0 l/m 19,3 km/h (3 Bft) SW 215 0 min 0 W/m 1,9 C -6,4 C 19,3 km/h (3 Bft)
05.02.2008 04:50 2,3 C 97 % 1008,5 hPa 0,0 l/m 18,3 km/h (3 Bft) SW 220 0 min 0 W/m 1,9 C -5,9 C 18,3 km/h (3 Bft)
05.02.2008 04:53 2,3 C 97 % 1008,5 hPa 0,0 l/m 20,1 km/h (4 Bft) S-SW 210 0 min 0 W/m 1,9 C -6,7 C 20,1 km/h (4 Bft)
05.02.2008 04:56 2,3 C 97 % 1008,5 hPa 0,0 l/m 21,5 km/h (4 Bft) SW 215 0 min 0 W/m 1,9 C -7,3 C 21,5 km/h (4 Bft)
05.02.2008 04:59 2,3 C 97 % 1008,5 hPa 0,0 l/m 23,9 km/h (4 Bft) SW 215 0 min 0 W/m 1,9 C -8,2 C 23,9 km/h (4 Bft)
05.02.2008 05:03 2,3 C 97 % 1008,5 hPa 0,0 l/m 23,9 km/h (4 Bft) SW 215 0 min 0 W/m 1,9 C -8,2 C 23,9 km/h (4 Bft)
05.02.2008 05:06 2,3 C 97 % 1008,5 hPa 0,0 l/m 18,9 km/h (3 Bft) SW 225 0 min 0 W/m 1,9 C -6,2 C 18,9 km/h (3 Bft)
05.02.2008 05:09 2,3 C 97 % 1008,5 hPa 0,0 l/m 23,0 km/h (4 Bft) SW 220 0 min 0 W/m 1,9 C -7,9 C 23,0 km/h (4 Bft)
05.02.2008 05:12 2,3 C 97 % 1008,5 hPa 0,0 l/m 20,7 km/h (4 Bft) SW 230 0 min 0 W/m 1,9 C -7,0 C 20,7 km/h (4 Bft)
05.02.2008 05:15 2,3 C 97 % 1008,5 hPa 0,0 l/m 17,0 km/h (3 Bft) SW 230 0 min 0 W/m 1,9 C -5,3 C 17,0 km/h (3 Bft)
05.02.2008 05:18 2,3 C 97 % 1008,5 hPa 0,0 l/m 20,0 km/h (4 Bft) SW 225 0 min 0 W/m 1,9 C -6,7 C 20,0 km/h (4 Bft)
05.02.2008 05:20 2,3 C 97 % 1008,5 hPa 0,0 l/m 19,9 km/h (4 Bft) SW 215 0 min 0 W/m 1,9 C -6,6 C 19,9 km/h (4 Bft)
05.02.2008 05:23 2,3 C 97 % 1008,5 hPa 0,0 l/m 22,7 km/h (4 Bft) SW 220 0 min 0 W/m 1,9 C -7,8 C 22,7 km/h (4 Bft)
05.02.2008 05:26 2,3 C 97 % 1008,5 hPa 0,0 l/m 15,7 km/h (3 Bft) SW 230 0 min 0 W/m 1,9 C -4,6 C 15,7 km/h (3 Bft)
05.02.2008 05:29 2,3 C 97 % 1008,5 hPa 0,0 l/m 20,2 km/h (4 Bft) SW 215 0 min 0 W/m 1,9 C -6,7 C 20,2 km/h (4 Bft)
05.02.2008 05:32 2,3 C 97 % 1008,5 hPa 0,0 l/m 22,3 km/h (4 Bft) SW 225 0 min 0 W/m 1,9 C -7,6 C 22,3 km/h (4 Bft)
05.02.2008 05:35 2,3 C 97 % 1008,5 hPa 0,0 l/m 21,0 km/h (4 Bft) SW 225 0 min 0 W/m 1,9 C -7,1 C 21,0 km/h (4 Bft)
05.02.2008 05:38 2,4 C 97 % 1008,5 hPa 0,0 l/m 22,8 km/h (4 Bft) SW 225 0 min 0 W/m 2,0 C -7,7 C 22,8 km/h (4 Bft)
05.02.2008 05:41 2,4 C 97 % 1008,5 hPa 0,0 l/m 22,3 km/h (4 Bft) SW 230 0 min 0 W/m 2,0 C -7,5 C 22,3 km/h (4 Bft)
05.02.2008 05:44 2,4 C 97 % 1008,5 hPa 0,0 l/m 22,3 km/h (4 Bft) SW 230 0 min 0 W/m 2,0 C -7,5 C 22,3 km/h (4 Bft)
05.02.2008 05:47 2,4 C 97 % 1008,5 hPa 0,0 l/m 21,6 km/h (4 Bft) SW 225 0 min 0 W/m 2,0 C -7,2 C 21,6 km/h (4 Bft)
05.02.2008 05:50 2,5 C 97 % 1008,5 hPa 0,0 l/m 23,6 km/h (4 Bft) SW 215 0 min 0 W/m 2,1 C -7,8 C 23,6 km/h (4 Bft)
05.02.2008 05:54 2,5 C 97 % 1008,5 hPa 0,0 l/m 21,6 km/h (4 Bft) SW 225 0 min 0 W/m 2,1 C -7,1 C 21,6 km/h (4 Bft)
05.02.2008 05:57 2,5 C 97 % 1008,5 hPa 0,0 l/m 23,1 km/h (4 Bft) SW 220 0 min 0 W/m 2,1 C -7,6 C 23,1 km/h (4 Bft)
05.02.2008 06:00 2,5 C 97 % 1008,5 hPa 0,0 l/m 22,3 km/h (4 Bft) SW 235 0 min 0 W/m 2,1 C -7,3 C 22,3 km/h (4 Bft)
05.02.2008 06:02 2,5 C 97 % 1008,5 hPa 0,0 l/m 22,3 km/h (4 Bft) SW 235 0 min 0 W/m 2,1 C -7,3 C 22,3 km/h (4 Bft)
05.02.2008 06:05 2,5 C 97 % 1008,5 hPa 0,0 l/m 25,0 km/h (4 Bft) SW 225 0 min 0 W/m 2,1 C -8,3 C 25,0 km/h (4 Bft)
05.02.2008 06:08 2,5 C 97 % 1008,5 hPa 0,0 l/m 29,5 km/h (5 Bft) SW 225 0 min 0 W/m 2,1 C -9,7 C 29,5 km/h (5 Bft)
05.02.2008 06:11 2,5 C 97 % 1008,5 hPa 0,0 l/m 24,5 km/h (4 Bft) SW 215 0 min 0 W/m 2,1 C -8,2 C 24,5 km/h (4 Bft)
05.02.2008 06:14 2,6 C 97 % 1008,5 hPa 0,0 l/m 25,8 km/h (4 Bft) SW 220 0 min 0 W/m 2,2 C -8,5 C 25,8 km/h (4 Bft)
05.02.2008 06:17 2,6 C 97 % 1008,5 hPa 0,0 l/m 23,6 km/h (4 Bft) SW 220 0 min 0 W/m 2,2 C -7,7 C 23,6 km/h (4 Bft)
05.02.2008 06:21 2,6 C 97 % 1008,5 hPa 0,0 l/m 17,9 km/h (3 Bft) SW 225 0 min 0 W/m 2,2 C -5,3 C 17,9 km/h (3 Bft)
05.02.2008 06:24 2,6 C 97 % 1008,5 hPa 0,0 l/m 20,5 km/h (4 Bft) SW 225 0 min 0 W/m 2,2 C -6,5 C 20,5 km/h (4 Bft)
05.02.2008 06:27 2,7 C 97 % 1008,5 hPa 0,0 l/m 22,8 km/h (4 Bft) SW 230 0 min 0 W/m 2,3 C -7,3 C 22,8 km/h (4 Bft)
05.02.2008 06:30 2,7 C 97 % 1008,5 hPa 0,0 l/m 26,5 km/h (4 Bft) SW 225 0 min 0 W/m 2,3 C -8,6 C 26,5 km/h (4 Bft)
05.02.2008 06:33 2,7 C 97 % 1008,5 hPa 0,0 l/m 25,0 km/h (4 Bft) SW 220 0 min 0 W/m 2,3 C -8,1 C 25,0 km/h (4 Bft)
05.02.2008 06:35 2,7 C 97 % 1008,5 hPa 0,0 l/m 25,0 km/h (4 Bft) SW 220 0 min 0 W/m 2,3 C -8,1 C 25,0 km/h (4 Bft)
05.02.2008 06:38 2,7 C 97 % 1008,5 hPa 0,0 l/m 24,9 km/h (4 Bft) SW 230 0 min 0 W/m 2,3 C -8,0 C 24,9 km/h (4 Bft)
05.02.2008 06:41 2,7 C 97 % 1008,5 hPa 0,0 l/m 19,2 km/h (3 Bft) SW 230 0 min 0 W/m 2,3 C -5,8 C 19,2 km/h (3 Bft)
05.02.2008 06:44 2,7 C 97 % 1008,5 hPa 0,0 l/m 19,9 km/h (4 Bft) SW 225 0 min 0 W/m 2,3 C -6,1 C 19,9 km/h (4 Bft)
05.02.2008 06:47 2,7 C 97 % 1008,5 hPa 0,0 l/m 22,5 km/h (4 Bft) SW 225 0 min 0 W/m 2,3 C -7,2 C 22,5 km/h (4 Bft)
05.02.2008 06:50 2,8 C 97 % 1008,5 hPa 0,0 l/m 20,6 km/h (4 Bft) SW 230 0 min 0 W/m 2,4 C -6,3 C 20,6 km/h (4 Bft)
05.02.2008 06:53 2,8 C 97 % 1008,5 hPa 0,0 l/m 23,3 km/h (4 Bft) SW 225 0 min 0 W/m 2,4 C -7,3 C 23,3 km/h (4 Bft)
05.02.2008 06:56 2,7 C 97 % 1008,5 hPa 0,0 l/m 24,9 km/h (4 Bft) SW 220 0 min 0 W/m 2,3 C -8,0 C 24,9 km/h (4 Bft)
05.02.2008 06:59 2,8 C 97 % 1008,5 hPa 0,0 l/m 27,7 km/h (5 Bft) SW 225 0 min 0 W/m 2,4 C -8,8 C 27,7 km/h (5 Bft)
05.02.2008 07:02 2,8 C 97 % 1008,5 hPa 0,0 l/m 22,1 km/h (4 Bft) SW 230 0 min 0 W/m 2,4 C -6,9 C 22,1 km/h (4 Bft)
05.02.2008 07:05 2,8 C 97 % 1008,5 hPa 0,0 l/m 20,4 km/h (4 Bft) SW 230 0 min 0 W/m 2,4 C -6,2 C 20,4 km/h (4 Bft)
05.02.2008 07:08 2,9 C 97 % 1008,5 hPa 0,0 l/m 26,5 km/h (4 Bft) SW 220 0 min 0 W/m 2,5 C -8,3 C 26,5 km/h (4 Bft)
05.02.2008 07:11 2,9 C 96 % 1008,5 hPa 0,0 l/m 30,7 km/h (5 Bft) SW 215 0 min 0 W/m 2,3 C -9,5 C 30,7 km/h (5 Bft)
05.02.2008 07:14 2,9 C 96 % 1008,5 hPa 0,0 l/m 22,1 km/h (4 Bft) SW 215 0 min 0 W/m 2,3 C -6,7 C 22,1 km/h (4 Bft)
05.02.2008 07:17 2,9 C 96 % 1008,5 hPa 0,0 l/m 23,0 km/h (4 Bft) SW 220 0 min 0 W/m 2,3 C -7,1 C 23,0 km/h (4 Bft)
05.02.2008 07:20 2,9 C 96 % 1008,5 hPa 0,0 l/m 30,8 km/h (5 Bft) SW 220 0 min 0 W/m 2,3 C -9,5 C 30,8 km/h (5 Bft)
05.02.2008 07:23 2,9 C 96 % 1008,5 hPa 0,0 l/m 22,3 km/h (4 Bft) SW 225 0 min 0 W/m 2,3 C -6,8 C 22,3 km/h (4 Bft)
05.02.2008 07:26 2,9 C 96 % 1008,5 hPa 0,0 l/m 29,5 km/h (5 Bft) SW 215 0 min 0 W/m 2,3 C -9,2 C 29,5 km/h (5 Bft)
05.02.2008 07:30 2,9 C 96 % 1008,5 hPa 0,0 l/m 23,5 km/h (4 Bft) S-SW 205 0 min 0 W/m 2,3 C -7,3 C 23,5 km/h (4 Bft)
05.02.2008 07:33 2,9 C 96 % 1008,5 hPa 0,0 l/m 20,1 km/h (4 Bft) S-SW 205 0 min 0 W/m 2,3 C -5,9 C 20,1 km/h (4 Bft)
05.02.2008 07:36 3,0 C 96 % 1008,5 hPa 0,0 l/m 21,0 km/h (4 Bft) SW 215 0 min 0 W/m 2,4 C -6,2 C 21,0 km/h (4 Bft)
05.02.2008 07:39 3,0 C 96 % 1008,5 hPa 0,0 l/m 21,0 km/h (4 Bft) SW 215 0 min 0 W/m 2,4 C -6,2 C 21,0 km/h (4 Bft)
05.02.2008 07:42 3,0 C 96 % 1008,5 hPa 0,0 l/m 18,1 km/h (3 Bft) SW 220 0 min 0 W/m 2,4 C -4,9 C 18,1 km/h (3 Bft)
05.02.2008 07:44 3,0 C 96 % 1008,5 hPa 0,0 l/m 22,2 km/h (4 Bft) SW 220 0 min 0 W/m 2,4 C -6,6 C 22,2 km/h (4 Bft)
05.02.2008 07:47 3,1 C 96 % 1008,5 hPa 0,0 l/m 24,6 km/h (4 Bft) S-SW 210 0 min 0 W/m 2,5 C -7,4 C 24,6 km/h (4 Bft)
05.02.2008 07:50 3,1 C 96 % 1008,5 hPa 0,0 l/m 19,5 km/h (3 Bft) S-SW 205 0 min 0 W/m 2,5 C -5,4 C 19,5 km/h (3 Bft)
05.02.2008 07:53 3,1 C 96 % 1008,5 hPa 0,0 l/m 21,9 km/h (4 Bft) S-SW 195 0 min 0 W/m 2,5 C -6,4 C 21,9 km/h (4 Bft)
05.02.2008 07:56 3,1 C 96 % 1008,5 hPa 0,0 l/m 24,7 km/h (4 Bft) S-SW 210 0 min 0 W/m 2,5 C -7,4 C 24,7 km/h (4 Bft)
05.02.2008 07:59 3,1 C 96 % 1008,5 hPa 0,0 l/m 23,8 km/h (4 Bft) S-SW 205 0 min 0 W/m 2,5 C -7,1 C 23,8 km/h (4 Bft)
05.02.2008 08:03 3,1 C 95 % 1008,5 hPa 0,0 l/m 25,8 km/h (4 Bft) S-SW 205 0 min 0 W/m 2,4 C -7,8 C 25,8 km/h (4 Bft)
05.02.2008 08:06 3,1 C 95 % 1008,5 hPa 0,0 l/m 25,8 km/h (4 Bft) S-SW 205 0 min 0 W/m 2,4 C -7,8 C 25,8 km/h (4 Bft)
05.02.2008 08:08 3,3 C 95 % 1008,5 hPa 0,0 l/m 21,8 km/h (4 Bft) S-SW 205 0 min 0 W/m 2,6 C -6,1 C 21,8 km/h (4 Bft)
05.02.2008 08:11 3,3 C 95 % 1008,5 hPa 0,0 l/m 21,0 km/h (4 Bft) S-SW 205 0 min 0 W/m 2,6 C -5,8 C 21,0 km/h (4 Bft)
05.02.2008 08:14 3,4 C 96 % 1008,5 hPa 0,0 l/m 23,6 km/h (4 Bft) S-SW 205 0 min 0 W/m 2,8 C -6,6 C 23,6 km/h (4 Bft)
05.02.2008 08:17 3,8 C 96 % 1008,5 hPa 0,0 l/m 29,2 km/h (5 Bft) S-SW 205 0 min 0 W/m 3,2 C -7,8 C 29,2 km/h (5 Bft)
05.02.2008 08:20 4,1 C 96 % 1008,5 hPa 0,0 l/m 24,1 km/h (4 Bft) S-SW 205 0 min 0 W/m 3,5 C -5,9 C 24,1 km/h (4 Bft)
05.02.2008 08:23 4,1 C 96 % 1008,5 hPa 0,0 l/m 24,0 km/h (4 Bft) S-SW 200 0 min 0 W/m 3,5 C -5,8 C 24,0 km/h (4 Bft)
05.02.2008 08:26 4,7 C 95 % 1008,5 hPa 0,0 l/m 24,1 km/h (4 Bft) S-SW 205 0 min 0 W/m 4,0 C -5,1 C 24,1 km/h (4 Bft)
05.02.2008 08:29 4,8 C 93 % 1008,5 hPa 0,0 l/m 22,9 km/h (4 Bft) S-SW 210 0 min 0 W/m 3,8 C -4,5 C 22,9 km/h (4 Bft)
05.02.2008 08:32 4,9 C 93 % 1008,5 hPa 0,0 l/m 23,0 km/h (4 Bft) SW 225 0 min 0 W/m 3,9 C -4,4 C 23,0 km/h (4 Bft)
05.02.2008 08:35 5,1 C 92 % 1008,5 hPa 0,0 l/m 21,2 km/h (4 Bft) S-SW 205 0 min 0 W/m 3,9 C -3,5 C 21,2 km/h (4 Bft)
05.02.2008 08:39 5,1 C 91 % 1008,5 hPa 0,0 l/m 19,4 km/h (3 Bft) S-SW 200 0 min 0 W/m 3,8 C -2,8 C 19,4 km/h (3 Bft)
05.02.2008 08:42 5,1 C 90 % 1008,5 hPa 0,0 l/m 23,5 km/h (4 Bft) S-SW 210 0 min 0 W/m 3,6 C -4,3 C 23,5 km/h (4 Bft)
05.02.2008 08:45 4,9 C 89 % 1008,5 hPa 0,0 l/m 27,0 km/h (5 Bft) S-SW 210 0 min 0 W/m 3,2 C -5,7 C 27,0 km/h (5 Bft)
05.02.2008 08:48 4,9 C 89 % 1008,5 hPa 0,0 l/m 27,2 km/h (5 Bft) S-SW 205 0 min 0 W/m 3,2 C -5,7 C 27,2 km/h (5 Bft)
05.02.2008 08:50 4,9 C 89 % 1008,5 hPa 0,0 l/m 30,1 km/h (5 Bft) SW 215 0 min 0 W/m 3,2 C -6,5 C 30,1 km/h (5 Bft)
05.02.2008 08:53 5,1 C 89 % 1008,5 hPa 0,0 l/m 18,5 km/h (3 Bft) S-SW 205 0 min 0 W/m 3,4 C -2,4 C 18,5 km/h (3 Bft)
05.02.2008 08:56 5,1 C 89 % 1008,5 hPa 0,0 l/m 28,5 km/h (5 Bft) S-SW 195 0 min 0 W/m 3,4 C -5,8 C 28,5 km/h (5 Bft)
05.02.2008 08:59 5,1 C 89 % 1008,5 hPa 0,0 l/m 25,7 km/h (4 Bft) S 190 0 min 0 W/m 3,4 C -5,0 C 25,7 km/h (4 Bft)
05.02.2008 09:03 5,1 C 88 % 1008,5 hPa 0,0 l/m 22,1 km/h (4 Bft) S-SW 195 0 min 0 W/m 3,3 C -3,8 C 22,1 km/h (4 Bft)
05.02.2008 09:06 4,9 C 87 % 1008,5 hPa 0,0 l/m 20,6 km/h (4 Bft) S-SW 195 0 min 0 W/m 2,9 C -3,5 C 20,6 km/h (4 Bft)
05.02.2008 09:09 4,9 C 87 % 1007,5 hPa 0,0 l/m 24,4 km/h (4 Bft) S 185 0 min 0 W/m 2,9 C -4,9 C 24,4 km/h (4 Bft)
05.02.2008 09:12 5,1 C 88 % 1007,5 hPa 0,0 l/m 23,0 km/h (4 Bft) S-SW 195 0 min 0 W/m 3,3 C -4,1 C 23,0 km/h (4 Bft)
05.02.2008 09:14 4,9 C 87 % 1007,5 hPa 0,0 l/m 20,8 km/h (4 Bft) S 185 0 min 0 W/m 2,9 C -3,6 C 20,8 km/h (4 Bft)
05.02.2008 09:17 4,9 C 87 % 1007,5 hPa 0,0 l/m 25,3 km/h (4 Bft) S 190 0 min 0 W/m 2,9 C -5,2 C 25,3 km/h (4 Bft)
05.02.2008 09:20 5,1 C 87 % 1007,5 hPa 0,0 l/m 19,6 km/h (3 Bft) S 175 0 min 0 W/m 3,1 C -2,9 C 19,6 km/h (3 Bft)
05.02.2008 09:23 4,9 C 87 % 1007,5 hPa 0,0 l/m 20,2 km/h (4 Bft) S 185 0 min 0 W/m 2,9 C -3,4 C 20,2 km/h (4 Bft)
05.02.2008 09:26 4,9 C 87 % 1007,5 hPa 0,0 l/m 16,3 km/h (3 Bft) S 180 0 min 0 W/m 2,9 C -1,7 C 16,3 km/h (3 Bft)
05.02.2008 09:29 4,9 C 87 % 1007,5 hPa 0,0 l/m 24,2 km/h (4 Bft) S 185 0 min 0 W/m 2,9 C -4,8 C 24,2 km/h (4 Bft)
05.02.2008 09:32 5,1 C 87 % 1007,5 hPa 0,0 l/m 24,2 km/h (4 Bft) S 185 0 min 0 W/m 3,1 C -4,6 C 24,2 km/h (4 Bft)
05.02.2008 09:35 5,1 C 87 % 1007,5 hPa 0,0 l/m 23,2 km/h (4 Bft) S 190 0 min 0 W/m 3,1 C -4,2 C 23,2 km/h (4 Bft)
05.02.2008 09:38 5,1 C 87 % 1007,5 hPa 0,0 l/m 19,2 km/h (3 Bft) S 185 0 min 0 W/m 3,1 C -2,7 C 19,2 km/h (3 Bft)
05.02.2008 09:42 5,1 C 85 % 1007,5 hPa 0,0 l/m 16,1 km/h (3 Bft) S 180 0 min 0 W/m 2,8 C -1,3 C 16,1 km/h (3 Bft)
05.02.2008 09:45 5,1 C 85 % 1007,5 hPa 0,0 l/m 16,3 km/h (3 Bft) S 180 0 min 0 W/m 2,8 C -1,4 C 16,3 km/h (3 Bft)
05.02.2008 09:48 5,2 C 85 % 1007,5 hPa 0,0 l/m 16,1 km/h (3 Bft) S 180 0 min 0 W/m 2,9 C -1,2 C 16,1 km/h (3 Bft)
05.02.2008 09:51 5,2 C 85 % 1007,5 hPa 0,0 l/m 21,0 km/h (4 Bft) S 190 0 min 0 W/m 2,9 C -3,3 C 21,0 km/h (4 Bft)
05.02.2008 09:53 5,2 C 85 % 1007,5 hPa 0,0 l/m 21,0 km/h (4 Bft) S 190 0 min 0 W/m 2,9 C -3,3 C 21,0 km/h (4 Bft)
05.02.2008 09:56 5,2 C 85 % 1007,5 hPa 0,0 l/m 23,0 km/h (4 Bft) S-SW 195 0 min 0 W/m 2,9 C -4,0 C 23,0 km/h (4 Bft)
05.02.2008 09:59 5,2 C 85 % 1007,5 hPa 0,0 l/m 25,9 km/h (4 Bft) S 190 0 min 0 W/m 2,9 C -5,0 C 25,9 km/h (4 Bft)
05.02.2008 10:03 5,2 C 84 % 1007,5 hPa 0,0 l/m 27,9 km/h (5 Bft) S 185 0 min 0 W/m 2,7 C -5,5 C 27,9 km/h (5 Bft)
05.02.2008 10:06 5,2 C 84 % 1007,5 hPa 0,0 l/m 22,3 km/h (4 Bft) S-SW 195 0 min 0 W/m 2,7 C -3,8 C 22,3 km/h (4 Bft)
05.02.2008 10:09 5,2 C 84 % 1007,5 hPa 0,0 l/m 22,5 km/h (4 Bft) S 190 0 min 0 W/m 2,7 C -3,8 C 22,5 km/h (4 Bft)
05.02.2008 10:12 5,1 C 84 % 1007,5 hPa 0,0 l/m 21,1 km/h (4 Bft) S-SW 195 0 min 0 W/m 2,6 C -3,5 C 21,1 km/h (4 Bft)
05.02.2008 10:14 5,2 C 85 % 1007,5 hPa 0,0 l/m 20,2 km/h (4 Bft) S 180 0 min 0 W/m 2,9 C -3,0 C 20,2 km/h (4 Bft)
05.02.2008 10:17 5,2 C 84 % 1007,5 hPa 0,0 l/m 27,7 km/h (5 Bft) S 180 0 min 0 W/m 2,7 C -5,5 C 27,7 km/h (5 Bft)
05.02.2008 10:20 5,2 C 83 % 1007,5 hPa 0,0 l/m 23,5 km/h (4 Bft) S 190 0 min 0 W/m 2,6 C -4,2 C 23,5 km/h (4 Bft)
05.02.2008 10:23 5,2 C 83 % 1007,5 hPa 0,0 l/m 21,5 km/h (4 Bft) S 185 0 min 0 W/m 2,6 C -3,5 C 21,5 km/h (4 Bft)
05.02.2008 10:26 5,2 C 83 % 1007,5 hPa 0,0 l/m 21,5 km/h (4 Bft) S 185 0 min 0 W/m 2,6 C -3,5 C 21,5 km/h (4 Bft)
05.02.2008 10:29 5,1 C 83 % 1007,5 hPa 0,0 l/m 20,4 km/h (4 Bft) S 175 0 min 0 W/m 2,5 C -3,2 C 20,4 km/h (4 Bft)
05.02.2008 10:32 4,9 C 83 % 1007,5 hPa 0,0 l/m 21,1 km/h (4 Bft) S 190 0 min 0 W/m 2,3 C -3,7 C 21,1 km/h (4 Bft)
05.02.2008 10:35 4,9 C 84 % 1007,5 hPa 0,0 l/m 28,3 km/h (5 Bft) S 185 0 min 0 W/m 2,4 C -6,1 C 28,3 km/h (5 Bft)
05.02.2008 10:38 4,7 C 84 % 1007,5 hPa 0,0 l/m 22,0 km/h (4 Bft) S 190 0 min 0 W/m 2,2 C -4,3 C 22,0 km/h (4 Bft)
05.02.2008 10:42 4,6 C 84 % 1007,5 hPa 0,0 l/m 23,1 km/h (4 Bft) S-SW 205 0 min 0 W/m 2,1 C -4,8 C 23,1 km/h (4 Bft)
05.02.2008 10:45 4,5 C 84 % 1007,5 hPa 0,0 l/m 32,5 km/h (5 Bft) S-SW 200 0 min 0 W/m 2,0 C -7,7 C 32,5 km/h (5 Bft)
05.02.2008 10:48 4,5 C 84 % 1007,5 hPa 0,0 l/m 20,6 km/h (4 Bft) S 190 0 min 0 W/m 2,0 C -4,1 C 20,6 km/h (4 Bft)
05.02.2008 10:51 4,5 C 85 % 1007,5 hPa 0,0 l/m 28,3 km/h (5 Bft) S-SW 200 0 min 0 W/m 2,2 C -6,6 C 28,3 km/h (5 Bft)
05.02.2008 10:53 4,6 C 85 % 1007,5 hPa 0,0 l/m 27,9 km/h (5 Bft) S-SW 200 0 min 0 W/m 2,3 C -6,4 C 27,9 km/h (5 Bft)
05.02.2008 10:56 4,6 C 85 % 1007,5 hPa 0,0 l/m 30,5 km/h (5 Bft) S-SW 195 0 min 0 W/m 2,3 C -7,1 C 30,5 km/h (5 Bft)
05.02.2008 10:59 4,6 C 85 % 1007,5 hPa 0,0 l/m 23,6 km/h (4 Bft) S-SW 195 0 min 0 W/m 2,3 C -5,0 C 23,6 km/h (4 Bft)
05.02.2008 11:03 4,6 C 85 % 1007,5 hPa 0,0 l/m 27,8 km/h (5 Bft) S 190 0 min 0 W/m 2,3 C -6,3 C 27,8 km/h (5 Bft)
05.02.2008 11:06 4,6 C 85 % 1007,5 hPa 0,0 l/m 29,7 km/h (5 Bft) S-SW 195 0 min 0 W/m 2,3 C -6,9 C 29,7 km/h (5 Bft)
05.02.2008 11:09 4,6 C 85 % 1007,5 hPa 0,0 l/m 23,2 km/h (4 Bft) S 190 0 min 0 W/m 2,3 C -4,9 C 23,2 km/h (4 Bft)
05.02.2008 11:12 4,6 C 85 % 1007,5 hPa 0,0 l/m 22,3 km/h (4 Bft) S-SW 195 0 min 0 W/m 2,3 C -4,6 C 22,3 km/h (4 Bft)
05.02.2008 11:14 4,6 C 85 % 1007,5 hPa 0,0 l/m 22,2 km/h (4 Bft) S-SW 195 0 min 0 W/m 2,3 C -4,5 C 22,2 km/h (4 Bft)
05.02.2008 11:17 4,6 C 86 % 1007,5 hPa 0,0 l/m 22,3 km/h (4 Bft) S 190 0 min 0 W/m 2,5 C -4,6 C 22,3 km/h (4 Bft)
05.02.2008 11:20 4,6 C 86 % 1006,5 hPa 0,0 l/m 24,0 km/h (4 Bft) S 185 0 min 0 W/m 2,5 C -5,2 C 24,0 km/h (4 Bft)
05.02.2008 11:23 4,7 C 86 % 1006,5 hPa 0,0 l/m 23,2 km/h (4 Bft) S 185 0 min 0 W/m 2,6 C -4,8 C 23,2 km/h (4 Bft)
05.02.2008 11:26 4,7 C 86 % 1006,5 hPa 0,0 l/m 29,0 km/h (5 Bft) S 190 0 min 0 W/m 2,6 C -6,5 C 29,0 km/h (5 Bft)
05.02.2008 11:29 4,7 C 86 % 1006,5 hPa 0,0 l/m 22,6 km/h (4 Bft) S 190 0 min 0 W/m 2,6 C -4,5 C 22,6 km/h (4 Bft)
05.02.2008 11:32 4,6 C 87 % 1006,5 hPa 0,3 l/m 24,8 km/h (4 Bft) S 185 0 min 0 W/m 2,6 C -5,4 C 24,8 km/h (4 Bft)
05.02.2008 11:35 4,7 C 87 % 1006,5 hPa 0,0 l/m 24,8 km/h (4 Bft) S 185 0 min 0 W/m 2,7 C -5,3 C 24,8 km/h (4 Bft)
05.02.2008 11:39 4,7 C 87 % 1006,5 hPa 0,0 l/m 22,6 km/h (4 Bft) S 180 0 min 0 W/m 2,7 C -4,5 C 22,6 km/h (4 Bft)
05.02.2008 11:42 4,6 C 87 % 1006,5 hPa 0,0 l/m 20,9 km/h (4 Bft) S 175 0 min 0 W/m 2,6 C -4,0 C 20,9 km/h (4 Bft)
05.02.2008 11:45 4,6 C 87 % 1006,5 hPa 0,0 l/m 26,5 km/h (4 Bft) S 175 0 min 0 W/m 2,6 C -6,0 C 26,5 km/h (4 Bft)
05.02.2008 11:48 4,6 C 88 % 1006,5 hPa 0,0 l/m 27,8 km/h (5 Bft) S 180 0 min 0 W/m 2,8 C -6,3 C 27,8 km/h (5 Bft)
05.02.2008 11:50 4,7 C 88 % 1006,5 hPa 0,0 l/m 26,6 km/h (4 Bft) S 185 0 min 0 W/m 2,9 C -5,8 C 26,6 km/h (4 Bft)
05.02.2008 11:53 4,6 C 88 % 1006,5 hPa 0,0 l/m 20,3 km/h (4 Bft) S 175 0 min 0 W/m 2,8 C -3,8 C 20,3 km/h (4 Bft)
05.02.2008 11:56 4,6 C 88 % 1006,5 hPa 0,0 l/m 23,0 km/h (4 Bft) S 180 0 min 0 W/m 2,8 C -4,8 C 23,0 km/h (4 Bft)
05.02.2008 11:59 4,6 C 88 % 1006,5 hPa 0,0 l/m 24,1 km/h (4 Bft) S 190 0 min 0 W/m 2,8 C -5,2 C 24,1 km/h (4 Bft)
05.02.2008 12:03 4,6 C 88 % 1006,5 hPa 0,0 l/m 23,1 km/h (4 Bft) S 180 0 min 0 W/m 2,8 C -4,8 C 23,1 km/h (4 Bft)
05.02.2008 12:06 4,6 C 89 % 1006,5 hPa 0,0 l/m 22,3 km/h (4 Bft) S 180 0 min 0 W/m 2,9 C -4,6 C 22,3 km/h (4 Bft)
05.02.2008 12:08 4,6 C 89 % 1006,5 hPa 0,0 l/m 22,6 km/h (4 Bft) S 180 0 min 0 W/m 2,9 C -4,7 C 22,6 km/h (4 Bft)
05.02.2008 12:11 4,5 C 88 % 1005,5 hPa 0,0 l/m 25,5 km/h (4 Bft) S 185 0 min 0 W/m 2,7 C -5,8 C 25,5 km/h (4 Bft)
05.02.2008 12:14 4,5 C 88 % 1005,5 hPa 0,0 l/m 27,2 km/h (5 Bft) S-SW 195 0 min 0 W/m 2,7 C -6,3 C 27,2 km/h (5 Bft)
05.02.2008 12:17 4,5 C 88 % 1005,5 hPa 0,0 l/m 24,1 km/h (4 Bft) S 190 0 min 0 W/m 2,7 C -5,3 C 24,1 km/h (4 Bft)
05.02.2008 12:20 4,4 C 89 % 1005,5 hPa 0,0 l/m 23,8 km/h (4 Bft) S 185 0 min 0 W/m 2,7 C -5,4 C 23,8 km/h (4 Bft)
05.02.2008 12:23 4,5 C 89 % 1005,5 hPa 0,0 l/m 22,1 km/h (4 Bft) S 185 0 min 0 W/m 2,8 C -4,6 C 22,1 km/h (4 Bft)
05.02.2008 12:26 4,5 C 89 % 1005,5 hPa 0,0 l/m 22,1 km/h (4 Bft) S 185 0 min 0 W/m 2,8 C -4,6 C 22,1 km/h (4 Bft)
05.02.2008 12:29 4,5 C 88 % 1005,5 hPa 0,0 l/m 32,4 km/h (5 Bft) S 180 0 min 0 W/m 2,7 C -7,7 C 32,4 km/h (5 Bft)
05.02.2008 12:33 4,5 C 88 % 1005,5 hPa 0,0 l/m 26,0 km/h (4 Bft) S-SW 195 0 min 0 W/m 2,7 C -5,9 C 26,0 km/h (4 Bft)
05.02.2008 12:36 4,7 C 89 % 1005,5 hPa 0,0 l/m 28,5 km/h (5 Bft) S-SW 200 0 min 0 W/m 3,0 C -6,4 C 28,5 km/h (5 Bft)
05.02.2008 12:39 4,7 C 89 % 1005,5 hPa 0,0 l/m 27,9 km/h (5 Bft) S-SW 205 0 min 0 W/m 3,0 C -6,2 C 27,9 km/h (5 Bft)
05.02.2008 12:42 4,7 C 89 % 1005,5 hPa 0,0 l/m 32,0 km/h (5 Bft) S-SW 200 0 min 0 W/m 3,0 C -7,3 C 32,0 km/h (5 Bft)
05.02.2008 12:44 4,8 C 89 % 1005,5 hPa 0,0 l/m 30,4 km/h (5 Bft) S-SW 195 0 min 0 W/m 3,1 C -6,8 C 30,4 km/h (5 Bft)
05.02.2008 12:47 4,8 C 89 % 1005,5 hPa 0,0 l/m 37,9 km/h (6 Bft) S-SW 195 0 min 0 W/m 3,1 C -8,4 C 37,9 km/h (6 Bft)
05.02.2008 12:50 4,9 C 89 % 1005,5 hPa 0,0 l/m 30,3 km/h (5 Bft) S-SW 195 0 min 0 W/m 3,2 C -6,6 C 30,3 km/h (5 Bft)
05.02.2008 12:53 4,8 C 89 % 1005,5 hPa 0,0 l/m 24,0 km/h (4 Bft) S 190 0 min 0 W/m 3,1 C -4,9 C 24,0 km/h (4 Bft)
05.02.2008 12:56 4,8 C 89 % 1004,5 hPa 0,0 l/m 29,1 km/h (5 Bft) S-SW 205 0 min 0 W/m 3,1 C -6,4 C 29,1 km/h (5 Bft)
05.02.2008 12:59 4,8 C 89 % 1004,5 hPa 0,0 l/m 28,4 km/h (5 Bft) S 190 0 min 0 W/m 3,1 C -6,2 C 28,4 km/h (5 Bft)
05.02.2008 13:02 4,8 C 89 % 1004,5 hPa 0,0 l/m 30,6 km/h (5 Bft) S 190 0 min 0 W/m 3,1 C -6,8 C 30,6 km/h (5 Bft)
05.02.2008 13:05 4,8 C 89 % 1004,5 hPa 0,0 l/m 31,0 km/h (5 Bft) S-SW 195 0 min 0 W/m 3,1 C -6,9 C 31,0 km/h (5 Bft)
05.02.2008 13:08 4,8 C 89 % 1004,5 hPa 0,0 l/m 32,9 km/h (5 Bft) S-SW 205 0 min 0 W/m 3,1 C -7,4 C 32,9 km/h (5 Bft)
05.02.2008 13:11 4,8 C 89 % 1004,5 hPa 0,0 l/m 24,8 km/h (4 Bft) S 185 0 min 0 W/m 3,1 C -5,2 C 24,8 km/h (4 Bft)
05.02.2008 13:14 4,7 C 90 % 1004,5 hPa 0,0 l/m 28,4 km/h (5 Bft) S 185 0 min 0 W/m 3,2 C -6,4 C 28,4 km/h (5 Bft)
05.02.2008 13:17 4,7 C 90 % 1004,5 hPa 0,0 l/m 31,9 km/h (5 Bft) S-SW 205 0 min 0 W/m 3,2 C -7,3 C 31,9 km/h (5 Bft)
05.02.2008 13:20 4,8 C 90 % 1004,5 hPa 0,0 l/m 29,3 km/h (5 Bft) S-SW 200 0 min 0 W/m 3,3 C -6,5 C 29,3 km/h (5 Bft)
05.02.2008 13:24 4,8 C 90 % 1004,5 hPa 0,0 l/m 37,2 km/h (5 Bft) S 190 0 min 0 W/m 3,3 C -8,3 C 37,2 km/h (5 Bft)
05.02.2008 13:27 4,8 C 90 % 1004,5 hPa 0,0 l/m 38,8 km/h (6 Bft) S-SW 195 0 min 0 W/m 3,3 C -8,6 C 38,8 km/h (6 Bft)
05.02.2008 13:30 4,8 C 89 % 1004,5 hPa 0,0 l/m 35,5 km/h (5 Bft) S-SW 200 0 min 0 W/m 3,1 C -7,9 C 35,5 km/h (5 Bft)
05.02.2008 13:33 4,9 C 89 % 1004,5 hPa 0,0 l/m 33,6 km/h (5 Bft) S-SW 205 0 min 0 W/m 3,2 C -7,4 C 33,6 km/h (5 Bft)
05.02.2008 13:35 4,9 C 89 % 1004,5 hPa 0,0 l/m 24,3 km/h (4 Bft) S-SW 200 0 min 0 W/m 3,2 C -4,9 C 24,3 km/h (4 Bft)
05.02.2008 13:38 4,9 C 89 % 1004,5 hPa 0,0 l/m 36,5 km/h (5 Bft) S 190 0 min 0 W/m 3,2 C -8,0 C 36,5 km/h (5 Bft)
05.02.2008 13:41 5,1 C 89 % 1004,5 hPa 0,0 l/m 33,2 km/h (5 Bft) S-SW 195 0 min 0 W/m 3,4 C -7,0 C 33,2 km/h (5 Bft)
05.02.2008 13:44 5,1 C 89 % 1004,5 hPa 0,0 l/m 26,6 km/h (4 Bft) S-SW 205 0 min 0 W/m 3,4 C -5,3 C 26,6 km/h (4 Bft)
05.02.2008 13:47 5,1 C 89 % 1004,5 hPa 0,0 l/m 33,3 km/h (5 Bft) S-SW 205 0 min 0 W/m 3,4 C -7,0 C 33,3 km/h (5 Bft)
05.02.2008 13:50 5,2 C 89 % 1004,5 hPa 0,0 l/m 28,6 km/h (5 Bft) S-SW 195 0 min 0 W/m 3,5 C -5,7 C 28,6 km/h (5 Bft)
05.02.2008 13:53 5,1 C 89 % 1004,5 hPa 0,0 l/m 29,3 km/h (5 Bft) S-SW 195 0 min 0 W/m 3,4 C -6,1 C 29,3 km/h (5 Bft)
05.02.2008 13:57 5,2 C 89 % 1004,5 hPa 0,0 l/m 31,1 km/h (5 Bft) S-SW 195 0 min 0 W/m 3,5 C -6,4 C 31,1 km/h (5 Bft)
05.02.2008 14:00 5,1 C 89 % 1004,5 hPa 0,0 l/m 24,5 km/h (4 Bft) S-SW 210 0 min 0 W/m 3,4 C -4,6 C 24,5 km/h (4 Bft)
05.02.2008 14:02 5,2 C 89 % 1003,5 hPa 0,0 l/m 26,6 km/h (4 Bft) S-SW 205 0 min 0 W/m 3,5 C -5,2 C 26,6 km/h (4 Bft)
05.02.2008 14:05 5,1 C 90 % 1003,5 hPa 0,3 l/m 24,7 km/h (4 Bft) S 185 0 min 0 W/m 3,6 C -4,7 C 24,7 km/h (4 Bft)
05.02.2008 14:08 5,2 C 90 % 1003,5 hPa 0,0 l/m 31,8 km/h (5 Bft) S 190 0 min 0 W/m 3,7 C -6,5 C 31,8 km/h (5 Bft)
05.02.2008 14:11 5,1 C 91 % 1003,5 hPa 0,0 l/m 22,2 km/h (4 Bft) S 180 0 min 0 W/m 3,8 C -3,9 C 22,2 km/h (4 Bft)
05.02.2008 14:15 5,1 C 91 % 1003,5 hPa 0,0 l/m 29,2 km/h (5 Bft) S-SW 210 0 min 0 W/m 3,8 C -6,0 C 29,2 km/h (5 Bft)
05.02.2008 14:18 5,1 C 91 % 1003,5 hPa 0,0 l/m 30,0 km/h (5 Bft) S-SW 195 0 min 0 W/m 3,8 C -6,2 C 30,0 km/h (5 Bft)
05.02.2008 14:21 4,9 C 91 % 1003,5 hPa 0,0 l/m 26,8 km/h (4 Bft) S-SW 195 0 min 0 W/m 3,6 C -5,6 C 26,8 km/h (4 Bft)
05.02.2008 14:23 5,1 C 91 % 1003,5 hPa 0,0 l/m 27,1 km/h (5 Bft) S-SW 200 0 min 0 W/m 3,8 C -5,4 C 27,1 km/h (5 Bft)
05.02.2008 14:26 5,1 C 91 % 1003,5 hPa 0,0 l/m 29,7 km/h (5 Bft) S-SW 195 0 min 0 W/m 3,8 C -6,2 C 29,7 km/h (5 Bft)
05.02.2008 14:29 5,1 C 91 % 1003,5 hPa 0,0 l/m 28,3 km/h (5 Bft) S 185 0 min 0 W/m 3,8 C -5,8 C 28,3 km/h (5 Bft)
05.02.2008 14:32 4,9 C 91 % 1003,5 hPa 0,0 l/m 24,0 km/h (4 Bft) S-SW 195 0 min 0 W/m 3,6 C -4,8 C 24,0 km/h (4 Bft)
05.02.2008 14:35 5,1 C 91 % 1003,5 hPa 0,0 l/m 31,8 km/h (5 Bft) S 190 0 min 0 W/m 3,8 C -6,7 C 31,8 km/h (5 Bft)
05.02.2008 14:38 5,1 C 91 % 1003,5 hPa 0,0 l/m 20,9 km/h (4 Bft) S-SW 205 0 min 0 W/m 3,8 C -3,4 C 20,9 km/h (4 Bft)
05.02.2008 14:41 5,1 C 91 % 1003,5 hPa 0,0 l/m 25,5 km/h (4 Bft) S 185 0 min 0 W/m 3,8 C -5,0 C 25,5 km/h (4 Bft)
05.02.2008 14:44 5,1 C 91 % 1003,5 hPa 0,0 l/m 28,9 km/h (5 Bft) S-SW 205 0 min 0 W/m 3,8 C -5,9 C 28,9 km/h (5 Bft)
05.02.2008 14:48 5,2 C 91 % 1003,5 hPa 0,0 l/m 27,7 km/h (5 Bft) S 190 0 min 0 W/m 3,9 C -5,5 C 27,7 km/h (5 Bft)
05.02.2008 14:51 5,2 C 91 % 1003,5 hPa 0,0 l/m 30,7 km/h (5 Bft) S-SW 195 0 min 0 W/m 3,9 C -6,3 C 30,7 km/h (5 Bft)
05.02.2008 14:54 5,2 C 90 % 1003,5 hPa 0,0 l/m 22,8 km/h (4 Bft) S-SW 200 0 min 0 W/m 3,7 C -3,9 C 22,8 km/h (4 Bft)
05.02.2008 14:56 5,3 C 90 % 1003,5 hPa 0,0 l/m 31,2 km/h (5 Bft) S-SW 210 0 min 0 W/m 3,8 C -6,3 C 31,2 km/h (5 Bft)
05.02.2008 14:59 5,4 C 90 % 1003,5 hPa 0,0 l/m 26,8 km/h (4 Bft) S-SW 205 0 min 0 W/m 3,9 C -4,9 C 26,8 km/h (4 Bft)
05.02.2008 15:02 5,5 C 90 % 1003,5 hPa 0,0 l/m 29,3 km/h (5 Bft) S-SW 205 0 min 0 W/m 4,0 C -5,5 C 29,3 km/h (5 Bft)
05.02.2008 15:06 5,6 C 90 % 1003,5 hPa 0,0 l/m 25,5 km/h (4 Bft) S-SW 200 0 min 0 W/m 4,1 C -4,3 C 25,5 km/h (4 Bft)
05.02.2008 15:09 5,6 C 90 % 1003,5 hPa 0,0 l/m 31,6 km/h (5 Bft) S-SW 205 0 min 0 W/m 4,1 C -5,9 C 31,6 km/h (5 Bft)
05.02.2008 15:12 5,6 C 90 % 1003,5 hPa 0,0 l/m 31,0 km/h (5 Bft) S-SW 210 0 min 0 W/m 4,1 C -5,8 C 31,0 km/h (5 Bft)
05.02.2008 15:14 5,6 C 90 % 1003,5 hPa 0,0 l/m 27,8 km/h (5 Bft) SW 215 0 min 0 W/m 4,1 C -4,9 C 27,8 km/h (5 Bft)
05.02.2008 15:17 5,7 C 89 % 1003,5 hPa 0,0 l/m 35,3 km/h (5 Bft) S-SW 205 0 min 0 W/m 4,0 C -6,6 C 35,3 km/h (5 Bft)
05.02.2008 15:20 5,7 C 89 % 1002,5 hPa 0,0 l/m 37,5 km/h (5 Bft) S-SW 205 0 min 0 W/m 4,0 C -7,0 C 37,5 km/h (5 Bft)
05.02.2008 15:23 5,7 C 89 % 1002,5 hPa 0,0 l/m 37,5 km/h (5 Bft) S-SW 205 0 min 0 W/m 4,0 C -7,0 C 37,5 km/h (5 Bft)
05.02.2008 15:26 5,8 C 89 % 1002,5 hPa 0,0 l/m 34,8 km/h (5 Bft) S-SW 200 0 min 0 W/m 4,1 C -6,3 C 34,8 km/h (5 Bft)
05.02.2008 15:29 5,8 C 89 % 1002,5 hPa 0,0 l/m 33,6 km/h (5 Bft) SW 215 0 min 0 W/m 4,1 C -6,1 C 33,6 km/h (5 Bft)
05.02.2008 15:32 5,7 C 89 % 1002,5 hPa 0,0 l/m 31,8 km/h (5 Bft) S-SW 200 0 min 0 W/m 4,0 C -5,8 C 31,8 km/h (5 Bft)
05.02.2008 15:36 5,7 C 89 % 1002,5 hPa 0,0 l/m 35,0 km/h (5 Bft) S-SW 205 0 min 0 W/m 4,0 C -6,5 C 35,0 km/h (5 Bft)
05.02.2008 15:39 5,8 C 89 % 1002,5 hPa 0,0 l/m 28,4 km/h (5 Bft) S-SW 200 0 min 0 W/m 4,1 C -4,8 C 28,4 km/h (5 Bft)
05.02.2008 15:42 5,8 C 90 % 1002,5 hPa 0,0 l/m 35,1 km/h (5 Bft) S-SW 205 0 min 0 W/m 4,3 C -6,4 C 35,1 km/h (5 Bft)
05.02.2008 15:44 5,8 C 90 % 1002,5 hPa 0,0 l/m 31,6 km/h (5 Bft) S-SW 205 0 min 0 W/m 4,3 C -5,6 C 31,6 km/h (5 Bft)
05.02.2008 15:47 5,8 C 90 % 1002,5 hPa 0,0 l/m 29,6 km/h (5 Bft) S-SW 210 0 min 0 W/m 4,3 C -5,1 C 29,6 km/h (5 Bft)
05.02.2008 15:50 5,8 C 90 % 1002,5 hPa 0,0 l/m 34,6 km/h (5 Bft) S-SW 205 0 min 0 W/m 4,3 C -6,3 C 34,6 km/h (5 Bft)
05.02.2008 15:53 5,8 C 90 % 1002,5 hPa 0,0 l/m 34,8 km/h (5 Bft) SW 215 0 min 0 W/m 4,3 C -6,3 C 34,8 km/h (5 Bft)
05.02.2008 15:56 5,8 C 91 % 1002,5 hPa 0,0 l/m 30,8 km/h (5 Bft) SW 220 0 min 0 W/m 4,4 C -5,4 C 30,8 km/h (5 Bft)
05.02.2008 15:59 5,7 C 91 % 1002,5 hPa 0,0 l/m 30,7 km/h (5 Bft) S-SW 205 0 min 0 W/m 4,3 C -5,6 C 30,7 km/h (5 Bft)
05.02.2008 16:02 5,7 C 91 % 1002,5 hPa 0,3 l/m 28,1 km/h (5 Bft) S-SW 200 0 min 0 W/m 4,3 C -4,9 C 28,1 km/h (5 Bft)
05.02.2008 16:05 5,7 C 91 % 1002,5 hPa 0,0 l/m 24,2 km/h (4 Bft) SW 225 0 min 0 W/m 4,3 C -3,7 C 24,2 km/h (4 Bft)
05.02.2008 16:08 5,8 C 92 % 1002,5 hPa 0,0 l/m 26,6 km/h (4 Bft) S-SW 210 0 min 0 W/m 4,6 C -4,3 C 26,6 km/h (4 Bft)
05.02.2008 16:11 5,8 C 92 % 1002,5 hPa 0,0 l/m 26,5 km/h (4 Bft) S-SW 205 0 min 0 W/m 4,6 C -4,3 C 26,5 km/h (4 Bft)
05.02.2008 16:14 5,7 C 92 % 1002,5 hPa 0,0 l/m 24,1 km/h (4 Bft) S-SW 200 0 min 0 W/m 4,5 C -3,7 C 24,1 km/h (4 Bft)
05.02.2008 16:17 5,6 C 92 % 1002,5 hPa 0,3 l/m 29,7 km/h (5 Bft) S-SW 200 0 min 0 W/m 4,4 C -5,5 C 29,7 km/h (5 Bft)
05.02.2008 16:21 5,6 C 93 % 1002,5 hPa 0,0 l/m 26,0 km/h (4 Bft) S-SW 205 0 min 0 W/m 4,6 C -4,4 C 26,0 km/h (4 Bft)
05.02.2008 16:24 5,6 C 93 % 1002,5 hPa 0,0 l/m 32,8 km/h (5 Bft) S-SW 205 0 min 0 W/m 4,6 C -6,2 C 32,8 km/h (5 Bft)
05.02.2008 16:27 5,6 C 93 % 1002,5 hPa 0,0 l/m 25,1 km/h (4 Bft) S-SW 205 0 min 0 W/m 4,6 C -4,2 C 25,1 km/h (4 Bft)
05.02.2008 16:29 5,6 C 93 % 1002,5 hPa 0,3 l/m 26,3 km/h (4 Bft) S-SW 195 0 min 0 W/m 4,6 C -4,5 C 26,3 km/h (4 Bft)
05.02.2008 16:32 5,6 C 94 % 1002,5 hPa 0,0 l/m 31,7 km/h (5 Bft) S-SW 205 0 min 0 W/m 4,7 C -5,9 C 31,7 km/h (5 Bft)
05.02.2008 16:35 5,6 C 94 % 1002,5 hPa 0,0 l/m 25,9 km/h (4 Bft) S-SW 200 0 min 0 W/m 4,7 C -4,4 C 25,9 km/h (4 Bft)
05.02.2008 16:38 5,6 C 94 % 1002,5 hPa 0,0 l/m 30,0 km/h (5 Bft) SW 215 0 min 0 W/m 4,7 C -5,5 C 30,0 km/h (5 Bft)
05.02.2008 16:41 5,6 C 94 % 1002,5 hPa 0,0 l/m 26,1 km/h (4 Bft) SW 220 0 min 0 W/m 4,7 C -4,5 C 26,1 km/h (4 Bft)
05.02.2008 16:44 5,6 C 94 % 1002,5 hPa 0,0 l/m 30,5 km/h (5 Bft) SW 215 0 min 0 W/m 4,7 C -5,7 C 30,5 km/h (5 Bft)
05.02.2008 16:47 5,7 C 94 % 1002,5 hPa 0,0 l/m 27,9 km/h (5 Bft) SW 215 0 min 0 W/m 4,8 C -4,8 C 27,9 km/h (5 Bft)
05.02.2008 16:51 5,7 C 94 % 1002,5 hPa 0,0 l/m 29,6 km/h (5 Bft) S-SW 205 0 min 0 W/m 4,8 C -5,3 C 29,6 km/h (5 Bft)
05.02.2008 16:54 5,7 C 94 % 1002,5 hPa 0,0 l/m 30,3 km/h (5 Bft) S-SW 210 0 min 0 W/m 4,8 C -5,5 C 30,3 km/h (5 Bft)
05.02.2008 16:56 5,8 C 94 % 1002,5 hPa 0,0 l/m 33,8 km/h (5 Bft) SW 225 0 min 0 W/m 4,9 C -6,1 C 33,8 km/h (5 Bft)
05.02.2008 16:59 5,9 C 94 % 1002,5 hPa 0,0 l/m 29,0 km/h (5 Bft) S-SW 210 0 min 0 W/m 5,0 C -4,9 C 29,0 km/h (5 Bft)
05.02.2008 17:02 5,9 C 94 % 1002,5 hPa 0,0 l/m 33,1 km/h (5 Bft) SW 215 0 min 0 W/m 5,0 C -5,8 C 33,1 km/h (5 Bft)
05.02.2008 17:06 6,0 C 95 % 1002,5 hPa 0,0 l/m 34,6 km/h (5 Bft) SW 215 0 min 0 W/m 5,3 C -6,0 C 34,6 km/h (5 Bft)
05.02.2008 17:09 6,0 C 95 % 1002,5 hPa 0,0 l/m 29,8 km/h (5 Bft) SW 215 0 min 0 W/m 5,3 C -4,9 C 29,8 km/h (5 Bft)
05.02.2008 17:12 6,0 C 95 % 1002,5 hPa 0,0 l/m 24,1 km/h (4 Bft) S-SW 210 0 min 0 W/m 5,3 C -3,3 C 24,1 km/h (4 Bft)
05.02.2008 17:14 6,0 C 95 % 1002,5 hPa 0,0 l/m 30,4 km/h (5 Bft) SW 215 0 min 0 W/m 5,3 C -5,1 C 30,4 km/h (5 Bft)
05.02.2008 17:17 6,0 C 95 % 1002,5 hPa 0,0 l/m 32,4 km/h (5 Bft) SW 215 0 min 0 W/m 5,3 C -5,5 C 32,4 km/h (5 Bft)
05.02.2008 17:20 6,0 C 95 % 1002,5 hPa 0,0 l/m 32,4 km/h (5 Bft) SW 215 0 min 0 W/m 5,3 C -5,5 C 32,4 km/h (5 Bft)
05.02.2008 17:23 6,0 C 95 % 1002,5 hPa 0,0 l/m 31,3 km/h (5 Bft) SW 215 0 min 0 W/m 5,3 C -5,3 C 31,3 km/h (5 Bft)
05.02.2008 17:26 6,0 C 95 % 1002,5 hPa 0,0 l/m 25,0 km/h (4 Bft) SW 220 0 min 0 W/m 5,3 C -3,6 C 25,0 km/h (4 Bft)
05.02.2008 17:29 6,0 C 95 % 1002,5 hPa 0,0 l/m 31,2 km/h (5 Bft) S-SW 210 0 min 0 W/m 5,3 C -5,3 C 31,2 km/h (5 Bft)
05.02.2008 17:33 6,1 C 95 % 1002,5 hPa 0,0 l/m 31,2 km/h (5 Bft) S-SW 210 0 min 0 W/m 5,4 C -5,1 C 31,2 km/h (5 Bft)
05.02.2008 17:36 6,1 C 95 % 1002,5 hPa 0,0 l/m 26,6 km/h (4 Bft) SW 215 0 min 0 W/m 5,4 C -3,9 C 26,6 km/h (4 Bft)
05.02.2008 17:39 6,2 C 95 % 1002,5 hPa 0,0 l/m 28,7 km/h (5 Bft) SW 215 0 min 0 W/m 5,5 C -4,4 C 28,7 km/h (5 Bft)
05.02.2008 17:41 6,2 C 95 % 1002,5 hPa 0,0 l/m 31,0 km/h (5 Bft) SW 215 0 min 0 W/m 5,5 C -4,9 C 31,0 km/h (5 Bft)
05.02.2008 17:44 6,2 C 95 % 1002,5 hPa 0,0 l/m 27,4 km/h (5 Bft) SW 225 0 min 0 W/m 5,5 C -4,0 C 27,4 km/h (5 Bft)
05.02.2008 17:47 6,3 C 95 % 1002,5 hPa 0,0 l/m 35,7 km/h (5 Bft) SW 215 0 min 0 W/m 5,6 C -5,8 C 35,7 km/h (5 Bft)
05.02.2008 17:50 6,3 C 95 % 1002,5 hPa 0,0 l/m 31,5 km/h (5 Bft) S-SW 210 0 min 0 W/m 5,6 C -4,9 C 31,5 km/h (5 Bft)
05.02.2008 17:53 6,3 C 95 % 1002,5 hPa 0,0 l/m 32,8 km/h (5 Bft) SW 215 0 min 0 W/m 5,6 C -5,2 C 32,8 km/h (5 Bft)
05.02.2008 17:56 6,3 C 95 % 1002,5 hPa 0,0 l/m 27,3 km/h (5 Bft) SW 220 0 min 0 W/m 5,6 C -3,8 C 27,3 km/h (5 Bft)
05.02.2008 18:00 6,3 C 95 % 1002,5 hPa 0,0 l/m 23,0 km/h (4 Bft) SW 225 0 min 0 W/m 5,6 C -2,6 C 23,0 km/h (4 Bft)
05.02.2008 18:02 6,4 C 95 % 1002,5 hPa 0,0 l/m 28,1 km/h (5 Bft) SW 215 0 min 0 W/m 5,7 C -3,9 C 28,1 km/h (5 Bft)
05.02.2008 18:05 6,4 C 95 % 1002,5 hPa 0,0 l/m 24,8 km/h (4 Bft) S-SW 205 0 min 0 W/m 5,7 C -3,0 C 24,8 km/h (4 Bft)
05.02.2008 18:08 6,4 C 95 % 1002,5 hPa 0,0 l/m 27,0 km/h (5 Bft) SW 225 0 min 0 W/m 5,7 C -3,6 C 27,0 km/h (5 Bft)
05.02.2008 18:11 6,4 C 95 % 1002,5 hPa 0,0 l/m 24,4 km/h (4 Bft) SW 230 0 min 0 W/m 5,7 C -2,9 C 24,4 km/h (4 Bft)
05.02.2008 18:15 6,4 C 95 % 1002,5 hPa 0,0 l/m 27,4 km/h (5 Bft) SW 220 0 min 0 W/m 5,7 C -3,7 C 27,4 km/h (5 Bft)
05.02.2008 18:18 6,4 C 95 % 1002,5 hPa 0,0 l/m 36,5 km/h (5 Bft) S-SW 210 0 min 0 W/m 5,7 C -5,8 C 36,5 km/h (5 Bft)
05.02.2008 18:21 6,4 C 95 % 1002,5 hPa 0,0 l/m 26,6 km/h (4 Bft) SW 215 0 min 0 W/m 5,7 C -3,5 C 26,6 km/h (4 Bft)
05.02.2008 18:23 6,4 C 95 % 1002,5 hPa 0,0 l/m 19,8 km/h (3 Bft) SW 230 0 min 0 W/m 5,7 C -1,3 C 19,8 km/h (3 Bft)
05.02.2008 18:26 6,4 C 95 % 1002,5 hPa 0,0 l/m 19,8 km/h (3 Bft) SW 230 0 min 0 W/m 5,7 C -1,3 C 19,8 km/h (3 Bft)
05.02.2008 18:29 6,4 C 95 % 1002,5 hPa 0,0 l/m 21,7 km/h (4 Bft) SW 225 0 min 0 W/m 5,7 C -2,0 C 21,7 km/h (4 Bft)
05.02.2008 18:32 6,4 C 95 % 1002,5 hPa 0,0 l/m 28,0 km/h (5 Bft) SW 215 0 min 0 W/m 5,7 C -3,9 C 28,0 km/h (5 Bft)
05.02.2008 18:35 6,5 C 95 % 1002,5 hPa 0,0 l/m 25,3 km/h (4 Bft) SW 215 0 min 0 W/m 5,8 C -3,0 C 25,3 km/h (4 Bft)
05.02.2008 18:38 6,5 C 95 % 1002,5 hPa 0,0 l/m 27,3 km/h (5 Bft) S-SW 210 0 min 0 W/m 5,8 C -3,6 C 27,3 km/h (5 Bft)
05.02.2008 18:42 6,5 C 94 % 1002,5 hPa 0,0 l/m 30,4 km/h (5 Bft) SW 215 0 min 0 W/m 5,6 C -4,4 C 30,4 km/h (5 Bft)
05.02.2008 18:45 6,5 C 94 % 1002,5 hPa 0,0 l/m 29,6 km/h (5 Bft) SW 215 0 min 0 W/m 5,6 C -4,2 C 29,6 km/h (5 Bft)
05.02.2008 18:48 6,6 C 94 % 1002,5 hPa 0,0 l/m 25,7 km/h (4 Bft) SW 230 0 min 0 W/m 5,7 C -3,0 C 25,7 km/h (4 Bft)
05.02.2008 18:50 6,6 C 94 % 1002,5 hPa 0,0 l/m 24,9 km/h (4 Bft) SW 225 0 min 0 W/m 5,7 C -2,7 C 24,9 km/h (4 Bft)
05.02.2008 18:53 6,6 C 94 % 1002,5 hPa 0,0 l/m 27,1 km/h (5 Bft) SW 220 0 min 0 W/m 5,7 C -3,4 C 27,1 km/h (5 Bft)
05.02.2008 18:56 6,7 C 94 % 1002,5 hPa 0,0 l/m 25,5 km/h (4 Bft) SW 225 0 min 0 W/m 5,8 C -2,8 C 25,5 km/h (4 Bft)
05.02.2008 18:59 6,7 C 94 % 1002,5 hPa 0,0 l/m 23,7 km/h (4 Bft) W-SW 240 0 min 0 W/m 5,8 C -2,2 C 23,7 km/h (4 Bft)
05.02.2008 19:03 6,7 C 94 % 1002,5 hPa 0,0 l/m 28,0 km/h (5 Bft) SW 220 0 min 0 W/m 5,8 C -3,5 C 28,0 km/h (5 Bft)
05.02.2008 19:05 6,7 C 94 % 1002,5 hPa 0,0 l/m 25,2 km/h (4 Bft) SW 220 0 min 0 W/m 5,8 C -2,7 C 25,2 km/h (4 Bft)
05.02.2008 19:08 6,8 C 94 % 1002,5 hPa 0,0 l/m 26,5 km/h (4 Bft) SW 225 0 min 0 W/m 5,9 C -2,9 C 26,5 km/h (4 Bft)
05.02.2008 19:11 6,7 C 94 % 1002,5 hPa 0,0 l/m 30,1 km/h (5 Bft) SW 215 0 min 0 W/m 5,8 C -4,0 C 30,1 km/h (5 Bft)
05.02.2008 19:14 6,8 C 94 % 1002,5 hPa 0,0 l/m 30,1 km/h (5 Bft) SW 215 0 min 0 W/m 5,9 C -3,9 C 30,1 km/h (5 Bft)
05.02.2008 19:17 6,8 C 94 % 1002,5 hPa 0,0 l/m 31,6 km/h (5 Bft) SW 225 0 min 0 W/m 5,9 C -4,2 C 31,6 km/h (5 Bft)
05.02.2008 19:20 6,8 C 94 % 1002,5 hPa 0,0 l/m 26,2 km/h (4 Bft) SW 225 0 min 0 W/m 5,9 C -2,9 C 26,2 km/h (4 Bft)
05.02.2008 19:24 6,8 C 94 % 1002,5 hPa 0,0 l/m 27,2 km/h (5 Bft) SW 225 0 min 0 W/m 5,9 C -3,1 C 27,2 km/h (5 Bft)
05.02.2008 19:27 6,8 C 94 % 1002,5 hPa 0,0 l/m 30,5 km/h (5 Bft) SW 225 0 min 0 W/m 5,9 C -4,0 C 30,5 km/h (5 Bft)
05.02.2008 19:30 6,8 C 94 % 1002,5 hPa 0,0 l/m 31,2 km/h (5 Bft) S-SW 210 0 min 0 W/m 5,9 C -4,1 C 31,2 km/h (5 Bft)
05.02.2008 19:32 6,8 C 94 % 1002,5 hPa 0,0 l/m 21,4 km/h (4 Bft) W-SW 240 0 min 0 W/m 5,9 C -1,3 C 21,4 km/h (4 Bft)
05.02.2008 19:35 6,8 C 94 % 1002,5 hPa 0,0 l/m 28,3 km/h (5 Bft) SW 230 0 min 0 W/m 5,9 C -3,4 C 28,3 km/h (5 Bft)
05.02.2008 19:38 6,9 C 94 % 1002,5 hPa 0,0 l/m 25,1 km/h (4 Bft) SW 225 0 min 0 W/m 6,0 C -2,4 C 25,1 km/h (4 Bft)
05.02.2008 19:41 6,9 C 94 % 1002,5 hPa 0,0 l/m 27,1 km/h (5 Bft) S-SW 205 0 min 0 W/m 6,0 C -3,0 C 27,1 km/h (5 Bft)
05.02.2008 19:44 6,9 C 94 % 1002,5 hPa 0,0 l/m 22,0 km/h (4 Bft) SW 215 0 min 0 W/m 6,0 C -1,4 C 22,0 km/h (4 Bft)
05.02.2008 19:47 6,9 C 94 % 1002,5 hPa 0,0 l/m 27,4 km/h (5 Bft) SW 230 0 min 0 W/m 6,0 C -3,0 C 27,4 km/h (5 Bft)
05.02.2008 19:51 6,9 C 94 % 1002,5 hPa 0,0 l/m 22,6 km/h (4 Bft) SW 230 0 min 0 W/m 6,0 C -1,6 C 22,6 km/h (4 Bft)
05.02.2008 19:54 6,9 C 94 % 1002,5 hPa 0,0 l/m 23,6 km/h (4 Bft) SW 215 0 min 0 W/m 6,0 C -1,9 C 23,6 km/h (4 Bft)
05.02.2008 19:57 6,9 C 94 % 1001,5 hPa 0,0 l/m 30,3 km/h (5 Bft) SW 225 0 min 0 W/m 6,0 C -3,8 C 30,3 km/h (5 Bft)
05.02.2008 19:59 6,9 C 94 % 1002,5 hPa 0,0 l/m 21,5 km/h (4 Bft) SW 230 0 min 0 W/m 6,0 C -1,3 C 21,5 km/h (4 Bft)
05.02.2008 20:02 6,9 C 94 % 1002,5 hPa 0,0 l/m 20,7 km/h (4 Bft) SW 215 0 min 0 W/m 6,0 C -1,0 C 20,7 km/h (4 Bft)
05.02.2008 20:06 6,9 C 94 % 1002,5 hPa 0,0 l/m 15,8 km/h (3 Bft) W-SW 240 0 min 0 W/m 6,0 C 1,0 C 15,8 km/h (3 Bft)
05.02.2008 20:09 6,9 C 94 % 1002,5 hPa 0,0 l/m 26,2 km/h (4 Bft) SW 225 0 min 0 W/m 6,0 C -2,7 C 26,2 km/h (4 Bft)
05.02.2008 20:11 7,0 C 94 % 1002,5 hPa 0,0 l/m 30,2 km/h (5 Bft) SW 220 0 min 0 W/m 6,1 C -3,6 C 30,2 km/h (5 Bft)
05.02.2008 20:14 7,0 C 94 % 1001,5 hPa 0,0 l/m 29,6 km/h (5 Bft) SW 230 0 min 0 W/m 6,1 C -3,5 C 29,6 km/h (5 Bft)
05.02.2008 20:17 7,0 C 94 % 1001,5 hPa 0,0 l/m 24,5 km/h (4 Bft) SW 215 0 min 0 W/m 6,1 C -2,1 C 24,5 km/h (4 Bft)
05.02.2008 20:20 7,0 C 94 % 1001,5 hPa 0,0 l/m 35,6 km/h (5 Bft) SW 225 0 min 0 W/m 6,1 C -4,8 C 35,6 km/h (5 Bft)
05.02.2008 20:23 7,1 C 94 % 1001,5 hPa 0,0 l/m 23,1 km/h (4 Bft) SW 225 0 min 0 W/m 6,2 C -1,5 C 23,1 km/h (4 Bft)
05.02.2008 20:26 7,1 C 94 % 1001,5 hPa 0,0 l/m 28,8 km/h (5 Bft) SW 230 0 min 0 W/m 6,2 C -3,1 C 28,8 km/h (5 Bft)
05.02.2008 20:30 7,2 C 94 % 1001,5 hPa 0,0 l/m 32,1 km/h (5 Bft) SW 225 0 min 0 W/m 6,3 C -3,8 C 32,1 km/h (5 Bft)
05.02.2008 20:33 7,2 C 94 % 1001,5 hPa 0,0 l/m 31,0 km/h (5 Bft) SW 235 0 min 0 W/m 6,3 C -3,5 C 31,0 km/h (5 Bft)
05.02.2008 20:36 7,2 C 93 % 1001,5 hPa 0,0 l/m 31,3 km/h (5 Bft) SW 225 0 min 0 W/m 6,1 C -3,6 C 31,3 km/h (5 Bft)
05.02.2008 20:38 7,2 C 93 % 1001,5 hPa 0,0 l/m 29,5 km/h (5 Bft) SW 225 0 min 0 W/m 6,1 C -3,2 C 29,5 km/h (5 Bft)
05.02.2008 20:41 7,2 C 93 % 1001,5 hPa 0,0 l/m 34,9 km/h (5 Bft) SW 225 0 min 0 W/m 6,1 C -4,3 C 34,9 km/h (5 Bft)
05.02.2008 20:44 7,3 C 93 % 1001,5 hPa 0,0 l/m 30,8 km/h (5 Bft) S-SW 210 0 min 0 W/m 6,2 C -3,3 C 30,8 km/h (5 Bft)
05.02.2008 20:47 7,3 C 93 % 1001,5 hPa 0,0 l/m 27,1 km/h (5 Bft) SW 235 0 min 0 W/m 6,2 C -2,4 C 27,1 km/h (5 Bft)
05.02.2008 20:50 7,4 C 93 % 1001,5 hPa 0,0 l/m 24,1 km/h (4 Bft) SW 230 0 min 0 W/m 6,3 C -1,4 C 24,1 km/h (4 Bft)
05.02.2008 20:54 7,4 C 92 % 1001,5 hPa 0,0 l/m 32,7 km/h (5 Bft) SW 225 0 min 0 W/m 6,2 C -3,6 C 32,7 km/h (5 Bft)
05.02.2008 20:57 7,4 C 92 % 1001,5 hPa 0,0 l/m 30,8 km/h (5 Bft) SW 230 0 min 0 W/m 6,2 C -3,2 C 30,8 km/h (5 Bft)
05.02.2008 21:00 7,4 C 92 % 1001,5 hPa 0,0 l/m 24,7 km/h (4 Bft) S-SW 205 0 min 0 W/m 6,2 C -1,6 C 24,7 km/h (4 Bft)
05.02.2008 21:02 7,5 C 92 % 1001,5 hPa 0,0 l/m 31,7 km/h (5 Bft) SW 215 0 min 0 W/m 6,3 C -3,2 C 31,7 km/h (5 Bft)
05.02.2008 21:05 7,5 C 92 % 1001,5 hPa 0,0 l/m 33,5 km/h (5 Bft) SW 220 0 min 0 W/m 6,3 C -3,6 C 33,5 km/h (5 Bft)
05.02.2008 21:09 7,6 C 92 % 1001,5 hPa 0,0 l/m 33,5 km/h (5 Bft) SW 220 0 min 0 W/m 6,4 C -3,5 C 33,5 km/h (5 Bft)
05.02.2008 21:12 7,6 C 92 % 1001,5 hPa 0,0 l/m 26,0 km/h (4 Bft) SW 215 0 min 0 W/m 6,4 C -1,7 C 26,0 km/h (4 Bft)
05.02.2008 21:15 7,6 C 92 % 1001,5 hPa 0,0 l/m 27,6 km/h (5 Bft) SW 220 0 min 0 W/m 6,4 C -2,1 C 27,6 km/h (5 Bft)
05.02.2008 21:17 7,5 C 92 % 1001,5 hPa 0,0 l/m 27,6 km/h (5 Bft) SW 220 0 min 0 W/m 6,3 C -2,3 C 27,6 km/h (5 Bft)
05.02.2008 21:20 7,6 C 92 % 1001,5 hPa 0,0 l/m 27,5 km/h (5 Bft) SW 225 0 min 0 W/m 6,4 C -2,1 C 27,5 km/h (5 Bft)
05.02.2008 21:23 7,6 C 92 % 1001,5 hPa 0,0 l/m 27,4 km/h (5 Bft) SW 220 0 min 0 W/m 6,4 C -2,1 C 27,4 km/h (5 Bft)
05.02.2008 21:26 7,6 C 92 % 1001,5 hPa 0,0 l/m 27,4 km/h (5 Bft) SW 220 0 min 0 W/m 6,4 C -2,1 C 27,4 km/h (5 Bft)
05.02.2008 21:29 7,6 C 92 % 1001,5 hPa 0,0 l/m 29,2 km/h (5 Bft) SW 225 0 min 0 W/m 6,4 C -2,5 C 29,2 km/h (5 Bft)
05.02.2008 21:33 7,7 C 92 % 1001,5 hPa 0,0 l/m 29,6 km/h (5 Bft) SW 225 0 min 0 W/m 6,5 C -2,5 C 29,6 km/h (5 Bft)
05.02.2008 21:36 7,7 C 92 % 1001,5 hPa 0,0 l/m 26,8 km/h (4 Bft) SW 230 0 min 0 W/m 6,5 C -1,8 C 26,8 km/h (4 Bft)
05.02.2008 21:39 7,7 C 92 % 1001,5 hPa 0,0 l/m 30,4 km/h (5 Bft) SW 225 0 min 0 W/m 6,5 C -2,7 C 30,4 km/h (5 Bft)
05.02.2008 21:41 7,7 C 92 % 1001,5 hPa 0,0 l/m 24,6 km/h (4 Bft) SW 215 0 min 0 W/m 6,5 C -1,2 C 24,6 km/h (4 Bft)
05.02.2008 21:44 7,8 C 92 % 1001,5 hPa 0,0 l/m 31,0 km/h (5 Bft) SW 225 0 min 0 W/m 6,6 C -2,7 C 31,0 km/h (5 Bft)
05.02.2008 21:47 7,8 C 92 % 1001,5 hPa 0,0 l/m 31,6 km/h (5 Bft) SW 225 0 min 0 W/m 6,6 C -2,8 C 31,6 km/h (5 Bft)
05.02.2008 21:50 7,8 C 93 % 1001,5 hPa 0,0 l/m 22,2 km/h (4 Bft) W-SW 240 0 min 0 W/m 6,7 C -0,3 C 22,2 km/h (4 Bft)
05.02.2008 21:53 7,8 C 93 % 1001,5 hPa 0,0 l/m 31,8 km/h (5 Bft) SW 225 0 min 0 W/m 6,7 C -2,8 C 31,8 km/h (5 Bft)
05.02.2008 21:57 7,8 C 93 % 1000,5 hPa 0,0 l/m 25,6 km/h (4 Bft) SW 230 0 min 0 W/m 6,7 C -1,3 C 25,6 km/h (4 Bft)
05.02.2008 22:00 7,8 C 93 % 1000,5 hPa 0,3 l/m 24,2 km/h (4 Bft) SW 230 0 min 0 W/m 6,7 C -0,9 C 24,2 km/h (4 Bft)
05.02.2008 22:02 7,7 C 93 % 1000,5 hPa 0,0 l/m 29,2 km/h (5 Bft) SW 220 0 min 0 W/m 6,6 C -2,4 C 29,2 km/h (5 Bft)
05.02.2008 22:05 7,7 C 93 % 1000,5 hPa 0,3 l/m 24,5 km/h (4 Bft) SW 215 0 min 0 W/m 6,6 C -1,1 C 24,5 km/h (4 Bft)
05.02.2008 22:09 7,7 C 94 % 1000,5 hPa 0,0 l/m 31,8 km/h (5 Bft) SW 215 0 min 0 W/m 6,8 C -3,0 C 31,8 km/h (5 Bft)
05.02.2008 22:12 7,7 C 94 % 1000,5 hPa 0,0 l/m 31,0 km/h (5 Bft) SW 215 0 min 0 W/m 6,8 C -2,8 C 31,0 km/h (5 Bft)
05.02.2008 22:15 7,7 C 94 % 1000,5 hPa 0,0 l/m 30,1 km/h (5 Bft) SW 230 0 min 0 W/m 6,8 C -2,6 C 30,1 km/h (5 Bft)
05.02.2008 22:17 7,6 C 94 % 1000,5 hPa 0,0 l/m 29,2 km/h (5 Bft) SW 225 0 min 0 W/m 6,7 C -2,5 C 29,2 km/h (5 Bft)
05.02.2008 22:20 7,6 C 95 % 1000,5 hPa 0,0 l/m 30,5 km/h (5 Bft) SW 225 0 min 0 W/m 6,9 C -2,8 C 30,5 km/h (5 Bft)
05.02.2008 22:23 7,6 C 95 % 1000,5 hPa 0,0 l/m 33,0 km/h (5 Bft) SW 215 0 min 0 W/m 6,9 C -3,4 C 33,0 km/h (5 Bft)
05.02.2008 22:26 7,6 C 95 % 1000,5 hPa 0,0 l/m 27,0 km/h (5 Bft) S-SW 210 0 min 0 W/m 6,9 C -2,0 C 27,0 km/h (5 Bft)
05.02.2008 22:29 7,6 C 95 % 1000,5 hPa 0,0 l/m 27,3 km/h (5 Bft) S-SW 210 0 min 0 W/m 6,9 C -2,1 C 27,3 km/h (5 Bft)
05.02.2008 22:33 7,7 C 95 % 1000,5 hPa 0,0 l/m 37,1 km/h (5 Bft) S-SW 205 0 min 0 W/m 7,0 C -4,0 C 37,1 km/h (5 Bft)
05.02.2008 22:36 7,7 C 95 % 1000,5 hPa 0,0 l/m 27,3 km/h (5 Bft) SW 215 0 min 0 W/m 7,0 C -1,9 C 27,3 km/h (5 Bft)
05.02.2008 22:39 7,7 C 95 % 1000,5 hPa 0,0 l/m 30,0 km/h (5 Bft) SW 230 0 min 0 W/m 7,0 C -2,6 C 30,0 km/h (5 Bft)
05.02.2008 22:41 7,8 C 96 % 1000,5 hPa 0,0 l/m 28,6 km/h (5 Bft) SW 225 0 min 0 W/m 7,2 C -2,1 C 28,6 km/h (5 Bft)
05.02.2008 22:44 7,8 C 96 % 1000,5 hPa 0,0 l/m 29,5 km/h (5 Bft) SW 230 0 min 0 W/m 7,2 C -2,3 C 29,5 km/h (5 Bft)
05.02.2008 22:47 7,8 C 96 % 1000,5 hPa 0,0 l/m 23,5 km/h (4 Bft) SW 220 0 min 0 W/m 7,2 C -0,7 C 23,5 km/h (4 Bft)
05.02.2008 22:50 7,8 C 96 % 1000,5 hPa 0,3 l/m 31,0 km/h (5 Bft) SW 215 0 min 0 W/m 7,2 C -2,7 C 31,0 km/h (5 Bft)
05.02.2008 22:53 7,9 C 96 % 1000,5 hPa 0,0 l/m 27,2 km/h (5 Bft) SW 215 0 min 0 W/m 7,3 C -1,6 C 27,2 km/h (5 Bft)
05.02.2008 22:57 8,0 C 96 % 1000,5 hPa 0,3 l/m 31,0 km/h (5 Bft) SW 230 0 min 0 W/m 7,4 C -2,4 C 31,0 km/h (5 Bft)
05.02.2008 23:00 8,0 C 96 % 1000,5 hPa 0,3 l/m 30,2 km/h (5 Bft) SW 220 0 min 0 W/m 7,4 C -2,2 C 30,2 km/h (5 Bft)
05.02.2008 23:02 8,0 C 96 % 1000,5 hPa 0,0 l/m 26,0 km/h (4 Bft) SW 215 0 min 0 W/m 7,4 C -1,2 C 26,0 km/h (4 Bft)
05.02.2008 23:05 8,0 C 96 % 1000,5 hPa 0,0 l/m 20,6 km/h (4 Bft) W-SW 240 0 min 0 W/m 7,4 C 0,5 C 20,6 km/h (4 Bft)
05.02.2008 23:09 8,0 C 96 % 1000,5 hPa 0,3 l/m 32,8 km/h (5 Bft) SW 235 0 min 0 W/m 7,4 C -2,8 C 32,8 km/h (5 Bft)
05.02.2008 23:12 8,0 C 96 % 999,5 hPa 0,0 l/m 30,9 km/h (5 Bft) SW 225 0 min 0 W/m 7,4 C -2,4 C 30,9 km/h (5 Bft)
05.02.2008 23:15 8,0 C 96 % 999,5 hPa 0,3 l/m 30,9 km/h (5 Bft) SW 225 0 min 0 W/m 7,4 C -2,4 C 30,9 km/h (5 Bft)
05.02.2008 23:17 8,0 C 96 % 999,5 hPa 0,3 l/m 31,4 km/h (5 Bft) W-SW 240 0 min 0 W/m 7,4 C -2,5 C 31,4 km/h (5 Bft)
05.02.2008 23:20 8,1 C 97 % 999,5 hPa 0,3 l/m 28,5 km/h (5 Bft) SW 230 0 min 0 W/m 7,7 C -1,7 C 28,5 km/h (5 Bft)
05.02.2008 23:23 8,1 C 97 % 999,5 hPa 0,3 l/m 30,1 km/h (5 Bft) SW 220 0 min 0 W/m 7,7 C -2,0 C 30,1 km/h (5 Bft)
05.02.2008 23:26 8,1 C 97 % 999,5 hPa 0,0 l/m 26,3 km/h (4 Bft) S-SW 210 0 min 0 W/m 7,7 C -1,1 C 26,3 km/h (4 Bft)
05.02.2008 23:29 8,1 C 97 % 999,5 hPa 0,0 l/m 27,1 km/h (5 Bft) SW 225 0 min 0 W/m 7,7 C -1,3 C 27,1 km/h (5 Bft)
05.02.2008 23:33 8,1 C 97 % 999,5 hPa 0,0 l/m 29,2 km/h (5 Bft) SW 215 0 min 0 W/m 7,7 C -1,8 C 29,2 km/h (5 Bft)
05.02.2008 23:36 8,1 C 97 % 999,5 hPa 0,0 l/m 26,6 km/h (4 Bft) SW 215 0 min 0 W/m 7,7 C -1,2 C 26,6 km/h (4 Bft)
05.02.2008 23:39 8,1 C 97 % 999,5 hPa 0,0 l/m 24,1 km/h (4 Bft) SW 225 0 min 0 W/m 7,7 C -0,5 C 24,1 km/h (4 Bft)
05.02.2008 23:41 8,1 C 97 % 999,5 hPa 0,0 l/m 31,3 km/h (5 Bft) SW 230 0 min 0 W/m 7,7 C -2,3 C 31,3 km/h (5 Bft)
05.02.2008 23:44 8,1 C 97 % 999,5 hPa 0,0 l/m 29,1 km/h (5 Bft) SW 220 0 min 0 W/m 7,7 C -1,8 C 29,1 km/h (5 Bft)
05.02.2008 23:47 8,1 C 97 % 999,5 hPa 0,0 l/m 29,0 km/h (5 Bft) SW 220 0 min 0 W/m 7,7 C -1,8 C 29,0 km/h (5 Bft)
05.02.2008 23:50 8,1 C 97 % 999,5 hPa 0,0 l/m 24,6 km/h (4 Bft) SW 230 0 min 0 W/m 7,7 C -0,6 C 24,6 km/h (4 Bft)
05.02.2008 23:53 8,1 C 97 % 999,5 hPa 0,0 l/m 27,6 km/h (5 Bft) SW 235 0 min 0 W/m 7,7 C -1,4 C 27,6 km/h (5 Bft)
05.02.2008 23:57 8,1 C 97 % 999,5 hPa 0,0 l/m 28,5 km/h (5 Bft) W-SW 240 0 min 0 W/m 7,7 C -1,7 C 28,5 km/h (5 Bft)
_ Min-Zeit 04:42 10:20 23:12 - 00:41 - - - - 04:42 06:08 00:41
Minimum _ 2,3 C 83 % 999,5 hPa - 12,5 km/h (2 Bft) - - - - 1,9 C -9,7 C 12,5 km/h (2 Bft)
_ Max-Zeit 23:20 00:12 03:12 00:56 13:27 - - 00:02 00:02 23:20 20:06 13:27
Maximum _ 8,1 C 97 % 1009,5 hPa 0,3 l/m 38,8 km/h
S-SW (6 Bft)
- - 0 min 0 W/m 7,7 C 1,0 C 38,8 km/h
S-SW (6 Bft)
Durchschnitt _ 4,8 C 93 % 1005,3 hPa #4,8 l/m 25,0 km/h (4 Bft) SW - #0 min. 0 W/m 3,8 C -4,9 C 25,0 km/h (4 Bft)
copyright by Holger Just